Home > Products > Valid Products > TAF

000
FTUS41 KBOX 011517 AAA
TAFACK
TAF AMD
KACK 011517Z 0115/0212 20014KT P6SM FEW250
     FM020000 24012KT P6SM BKN070
     FM020200 25010KT P6SM SCT060
     FM020900 28006KT 6SM BR FEW050=



000
FTUS41 KBOX 011517 AAA
TAFACK
TAF AMD
KACK 011517Z 0115/0212 20014KT P6SM FEW250
     FM020000 24012KT P6SM BKN070
     FM020200 25010KT P6SM SCT060
     FM020900 28006KT 6SM BR FEW050=



000
FTUS41 KBOX 011516 AAA
TAFPVD
TAF AMD
KPVD 011516Z 0115/0212 26004KT P6SM SCT120
     FM011800 22013KT P6SM SCT060
     FM012100 24007KT P6SM VCSH BKN060
     FM020000 23006KT P6SM SCT060
     FM020500 29005KT P6SM FEW090=



000
FTUS41 KBOX 011516 AAA
TAFPVD
TAF AMD
KPVD 011516Z 0115/0212 26004KT P6SM SCT120
     FM011800 22013KT P6SM SCT060
     FM012100 24007KT P6SM VCSH BKN060
     FM020000 23006KT P6SM SCT060
     FM020500 29005KT P6SM FEW090=



000
FTUS41 KBOX 011515 AAA
TAFBOS
TAF AMD
KBOS 011515Z 0115/0218 27010KT P6SM BKN200
     FM011700 22015KT P6SM BKN060
     FM012000 29007KT P6SM VCSH BKN050 BKN060
     FM012200 28007KT P6SM SCT060 BKN080
     FM021600 22006KT P6SM FEW250=



000
FTUS41 KBOX 011515 AAA
TAFBOS
TAF AMD
KBOS 011515Z 0115/0218 27010KT P6SM BKN200
     FM011700 22015KT P6SM BKN060
     FM012000 29007KT P6SM VCSH BKN050 BKN060
     FM012200 28007KT P6SM SCT060 BKN080
     FM021600 22006KT P6SM FEW250=



000
FTUS41 KBOX 011515 AAA
TAFBOS
TAF AMD
KBOS 011515Z 0115/0218 27010KT P6SM BKN200
     FM011700 22015KT P6SM BKN060
     FM012000 29007KT P6SM VCSH BKN050 BKN060
     FM012200 28007KT P6SM SCT060 BKN080
     FM021600 22006KT P6SM FEW250=



000
FTUS41 KBOX 011515 AAA
TAFBOS
TAF AMD
KBOS 011515Z 0115/0218 27010KT P6SM BKN200
     FM011700 22015KT P6SM BKN060
     FM012000 29007KT P6SM VCSH BKN050 BKN060
     FM012200 28007KT P6SM SCT060 BKN080
     FM021600 22006KT P6SM FEW250=



000
FTUS41 KBOX 011515 AAA
TAFBDL
TAF AMD
KBDL 011515Z 0115/0218 24007KT P6SM SCT060 BKN080
     FM011800 26012KT P6SM VCSH BKN060
     FM012200 30010KT P6SM FEW050 SCT060
     FM020000 VRB03KT P6SM SCT250
     FM021700 23007KT P6SM SCT250=



000
FTUS41 KBOX 011515 AAA
TAFBDL
TAF AMD
KBDL 011515Z 0115/0218 24007KT P6SM SCT060 BKN080
     FM011800 26012KT P6SM VCSH BKN060
     FM012200 30010KT P6SM FEW050 SCT060
     FM020000 VRB03KT P6SM SCT250
     FM021700 23007KT P6SM SCT250=



000
FTUS41 KBOX 011515 AAA
TAFBDL
TAF AMD
KBDL 011515Z 0115/0218 24007KT P6SM SCT060 BKN080
     FM011800 26012KT P6SM VCSH BKN060
     FM012200 30010KT P6SM FEW050 SCT060
     FM020000 VRB03KT P6SM SCT250
     FM021700 23007KT P6SM SCT250=



000
FTUS41 KBOX 011120
TAFBOS
TAF
KBOS 011120Z 0112/0218 23010KT P6SM SCT060
     FM011700 22015KT P6SM BKN060
     FM012000 29007KT P6SM VCSH BKN050 BKN060
     FM012200 28007KT P6SM SCT060 BKN080
     FM021600 22006KT P6SM FEW250=



000
FTUS41 KBOX 011120
TAFPVD
TAF
KPVD 011120Z 0112/0212 24004KT P6SM SCT060
     FM011600 21009KT P6SM FEW060 SCT250
     FM011800 22013KT P6SM SCT060
     FM012100 24007KT P6SM VCSH BKN060
     FM020000 23006KT P6SM SCT060
     FM020500 29005KT P6SM FEW090=



000
FTUS41 KBOX 011120
TAFBAF
TAF
KBAF 011120Z 0112/0212 VRB03KT P6SM VCSH BKN060
     FM011400 24005KT P6SM FEW060 SCT080
     FM011700 27012KT P6SM VCSH BKN060
     FM012000 29012KT P6SM SCT060
     FM020100 29005KT P6SM FEW250=



000
FTUS41 KBOX 011120
TAFPVD
TAF
KPVD 011120Z 0112/0212 24004KT P6SM SCT060
     FM011600 21009KT P6SM FEW060 SCT250
     FM011800 22013KT P6SM SCT060
     FM012100 24007KT P6SM VCSH BKN060
     FM020000 23006KT P6SM SCT060
     FM020500 29005KT P6SM FEW090=



000
FTUS41 KBOX 011120
TAFBOS
TAF
KBOS 011120Z 0112/0218 23010KT P6SM SCT060
     FM011700 22015KT P6SM BKN060
     FM012000 29007KT P6SM VCSH BKN050 BKN060
     FM012200 28007KT P6SM SCT060 BKN080
     FM021600 22006KT P6SM FEW250=



000
FTUS41 KBOX 011120
TAFPVD
TAF
KPVD 011120Z 0112/0212 24004KT P6SM SCT060
     FM011600 21009KT P6SM FEW060 SCT250
     FM011800 22013KT P6SM SCT060
     FM012100 24007KT P6SM VCSH BKN060
     FM020000 23006KT P6SM SCT060
     FM020500 29005KT P6SM FEW090=



000
FTUS41 KBOX 011120
TAFBOS
TAF
KBOS 011120Z 0112/0218 23010KT P6SM SCT060
     FM011700 22015KT P6SM BKN060
     FM012000 29007KT P6SM VCSH BKN050 BKN060
     FM012200 28007KT P6SM SCT060 BKN080
     FM021600 22006KT P6SM FEW250=



000
FTUS41 KBOX 011120
TAFBDL
TAF
KBDL 011120Z 0112/0218 22005KT P6SM VCSH BKN060
     FM011500 24007KT P6SM SCT060 BKN080
     FM011800 26012KT P6SM VCSH BKN060
     FM012200 30010KT P6SM FEW050 SCT060
     FM020000 VRB03KT P6SM SCT250
     FM021700 23007KT P6SM SCT250=



000
FTUS41 KBOX 011120
TAFBAF
TAF
KBAF 011120Z 0112/0212 VRB03KT P6SM VCSH BKN060
     FM011400 24005KT P6SM FEW060 SCT080
     FM011700 27012KT P6SM VCSH BKN060
     FM012000 29012KT P6SM SCT060
     FM020100 29005KT P6SM FEW250=



000
FTUS41 KBOX 011120
TAFORH
TAF
KORH 011120Z 0112/0212 26005KT P6SM FEW060
     FM011400 24007KT P6SM VCSH SCT080
     FM011700 24012KT P6SM VCSH BKN060
     FM012100 28012KT P6SM VCSH SCT060 BKN200
     FM012300 28009KT P6SM FEW060 SCT250=



000
FTUS41 KBOX 011120
TAFBAF
TAF
KBAF 011120Z 0112/0212 VRB03KT P6SM VCSH BKN060
     FM011400 24005KT P6SM FEW060 SCT080
     FM011700 27012KT P6SM VCSH BKN060
     FM012000 29012KT P6SM SCT060
     FM020100 29005KT P6SM FEW250=



000
FTUS41 KBOX 011120
TAFORH
TAF
KORH 011120Z 0112/0212 26005KT P6SM FEW060
     FM011400 24007KT P6SM VCSH SCT080
     FM011700 24012KT P6SM VCSH BKN060
     FM012100 28012KT P6SM VCSH SCT060 BKN200
     FM012300 28009KT P6SM FEW060 SCT250=



000
FTUS41 KBOX 011120
TAFBDL
TAF
KBDL 011120Z 0112/0218 22005KT P6SM VCSH BKN060
     FM011500 24007KT P6SM SCT060 BKN080
     FM011800 26012KT P6SM VCSH BKN060
     FM012200 30010KT P6SM FEW050 SCT060
     FM020000 VRB03KT P6SM SCT250
     FM021700 23007KT P6SM SCT250=



000
FTUS41 KBOX 011120
TAFACK
TAF
KACK 011120Z 0112/0212 24007KT P6SM FEW250
     FM011600 23012KT P6SM FEW060 FEW250
     FM020000 24012KT P6SM BKN070
     FM020200 25010KT P6SM SCT060
     FM020900 28006KT 6SM BR FEW050=



000
FTUS41 KBOX 011120
TAFORH
TAF
KORH 011120Z 0112/0212 26005KT P6SM FEW060
     FM011400 24007KT P6SM VCSH SCT080
     FM011700 24012KT P6SM VCSH BKN060
     FM012100 28012KT P6SM VCSH SCT060 BKN200
     FM012300 28009KT P6SM FEW060 SCT250=



000
FTUS41 KBOX 011120
TAFBOS
TAF
KBOS 011120Z 0112/0218 23010KT P6SM SCT060
     FM011700 22015KT P6SM BKN060
     FM012000 29007KT P6SM VCSH BKN050 BKN060
     FM012200 28007KT P6SM SCT060 BKN080
     FM021600 22006KT P6SM FEW250=



000
FTUS41 KBOX 011120
TAFPVD
TAF
KPVD 011120Z 0112/0212 24004KT P6SM SCT060
     FM011600 21009KT P6SM FEW060 SCT250
     FM011800 22013KT P6SM SCT060
     FM012100 24007KT P6SM VCSH BKN060
     FM020000 23006KT P6SM SCT060
     FM020500 29005KT P6SM FEW090=



000
FTUS41 KBOX 011120
TAFACK
TAF
KACK 011120Z 0112/0212 24007KT P6SM FEW250
     FM011600 23012KT P6SM FEW060 FEW250
     FM020000 24012KT P6SM BKN070
     FM020200 25010KT P6SM SCT060
     FM020900 28006KT 6SM BR FEW050=



000
FTUS41 KBOX 011120
TAFORH
TAF
KORH 011120Z 0112/0212 26005KT P6SM FEW060
     FM011400 24007KT P6SM VCSH SCT080
     FM011700 24012KT P6SM VCSH BKN060
     FM012100 28012KT P6SM VCSH SCT060 BKN200
     FM012300 28009KT P6SM FEW060 SCT250=



000
FTUS41 KBOX 011120
TAFBDL
TAF
KBDL 011120Z 0112/0218 22005KT P6SM VCSH BKN060
     FM011500 24007KT P6SM SCT060 BKN080
     FM011800 26012KT P6SM VCSH BKN060
     FM012200 30010KT P6SM FEW050 SCT060
     FM020000 VRB03KT P6SM SCT250
     FM021700 23007KT P6SM SCT250=



000
FTUS41 KBOX 011120
TAFBDL
TAF
KBDL 011120Z 0112/0218 22005KT P6SM VCSH BKN060
     FM011500 24007KT P6SM SCT060 BKN080
     FM011800 26012KT P6SM VCSH BKN060
     FM012200 30010KT P6SM FEW050 SCT060
     FM020000 VRB03KT P6SM SCT250
     FM021700 23007KT P6SM SCT250=



000
FTUS41 KBOX 011120
TAFBAF
TAF
KBAF 011120Z 0112/0212 VRB03KT P6SM VCSH BKN060
     FM011400 24005KT P6SM FEW060 SCT080
     FM011700 27012KT P6SM VCSH BKN060
     FM012000 29012KT P6SM SCT060
     FM020100 29005KT P6SM FEW250=



000
FTUS41 KBOX 011120
TAFACK
TAF
KACK 011120Z 0112/0212 24007KT P6SM FEW250
     FM011600 23012KT P6SM FEW060 FEW250
     FM020000 24012KT P6SM BKN070
     FM020200 25010KT P6SM SCT060
     FM020900 28006KT 6SM BR FEW050=



000
FTUS41 KBOX 011120
TAFACK
TAF
KACK 011120Z 0112/0212 24007KT P6SM FEW250
     FM011600 23012KT P6SM FEW060 FEW250
     FM020000 24012KT P6SM BKN070
     FM020200 25010KT P6SM SCT060
     FM020900 28006KT 6SM BR FEW050=



000
FTUS41 KBOX 010951 AAA
TAFACK
TAF AMD
KACK 010951Z 0110/0206 25007KT 4SM BR FEW250
      TEMPO 0110/0112 1/2SM FG SCT002
     FM011600 22012KT P6SM BKN070
     FM020000 25009KT 6SM BR VCSH BKN070=



000
FTUS41 KBOX 010951 AAA
TAFACK
TAF AMD
KACK 010951Z 0110/0206 25007KT 4SM BR FEW250
      TEMPO 0110/0112 1/2SM FG SCT002
     FM011600 22012KT P6SM BKN070
     FM020000 25009KT 6SM BR VCSH BKN070=



000
FTUS41 KBOX 010806 AAA
TAFPVD
TAF AMD
KPVD 010806Z 0108/0206 00000KT P6SM SCT080
     FM011300 23004KT P6SM BKN070
     FM011700 23011KT P6SM VCSH BKN070
     FM020100 23004KT P6SM BKN070
     FM020500 29005KT P6SM BKN070=



000
FTUS41 KBOX 010806 AAA
TAFPVD
TAF AMD
KPVD 010806Z 0108/0206 00000KT P6SM SCT080
     FM011300 23004KT P6SM BKN070
     FM011700 23011KT P6SM VCSH BKN070
     FM020100 23004KT P6SM BKN070
     FM020500 29005KT P6SM BKN070=



000
FTUS41 KBOX 010805 AAA
TAFORH
TAF AMD
KORH 010805Z 0108/0206 22006KT P6SM BKN060
     FM011600 25009KT P6SM VCSH BKN080
     FM020100 28007KT P6SM SCT070=



000
FTUS41 KBOX 010805 AAA
TAFORH
TAF AMD
KORH 010805Z 0108/0206 22006KT P6SM BKN060
     FM011600 25009KT P6SM VCSH BKN080
     FM020100 28007KT P6SM SCT070=



000
FTUS41 KBOX 010805 AAA
TAFBDL
TAF AMD
KBDL 010805Z 0108/0212 VRB03KT P6SM FEW100
     FM011400 21005KT P6SM BKN070
     FM011700 25009KT P6SM VCSH BKN060
     FM012300 29005KT P6SM BKN060
     FM020400 00000KT P6SM FEW250=



000
FTUS41 KBOX 010805 AAA
TAFBDL
TAF AMD
KBDL 010805Z 0108/0212 VRB03KT P6SM FEW100
     FM011400 21005KT P6SM BKN070
     FM011700 25009KT P6SM VCSH BKN060
     FM012300 29005KT P6SM BKN060
     FM020400 00000KT P6SM FEW250=



000
FTUS41 KBOX 010533
TAFBAF
TAF
KBAF 010533Z 0106/0206 17005KT P6SM BKN100
     FM011400 21004KT P6SM BKN080
     FM011700 26009KT P6SM VCSH BKN060
     FM020000 29005KT P6SM SCT250=



000
FTUS41 KBOX 010533
TAFBOS
TAF
KBOS 010533Z 0106/0212 24004KT P6SM SCT100
     FM010900 23004KT P6SM BKN060
     FM011300 23005KT P6SM SCT090
     FM011700 24008KT P6SM VCSH BKN070
     FM020000 27007KT P6SM SCT090=



000
FTUS41 KBOX 010533
TAFORH
TAF
KORH 010533Z 0106/0206 23005KT P6SM SCT100
     FM010800 25005KT P6SM BKN070
     FM011600 25009KT P6SM VCSH BKN080
     FM020100 28007KT P6SM SCT070=



000
FTUS41 KBOX 010533
TAFBDL
TAF
KBDL 010533Z 0106/0212 19006KT P6SM SCT100
     FM011400 21005KT P6SM BKN070
     FM011700 25009KT P6SM VCSH BKN060
     FM012300 29005KT P6SM BKN060
     FM020400 00000KT P6SM FEW250=



000
FTUS41 KBOX 010533
TAFBDL
TAF
KBDL 010533Z 0106/0212 19006KT P6SM SCT100
     FM011400 21005KT P6SM BKN070
     FM011700 25009KT P6SM VCSH BKN060
     FM012300 29005KT P6SM BKN060
     FM020400 00000KT P6SM FEW250=



000
FTUS41 KBOX 010533
TAFBOS
TAF
KBOS 010533Z 0106/0212 24004KT P6SM SCT100
     FM010900 23004KT P6SM BKN060
     FM011300 23005KT P6SM SCT090
     FM011700 24008KT P6SM VCSH BKN070
     FM020000 27007KT P6SM SCT090=



000
FTUS41 KBOX 010533
TAFORH
TAF
KORH 010533Z 0106/0206 23005KT P6SM SCT100
     FM010800 25005KT P6SM BKN070
     FM011600 25009KT P6SM VCSH BKN080
     FM020100 28007KT P6SM SCT070=



000
FTUS41 KBOX 010533
TAFBAF
TAF
KBAF 010533Z 0106/0206 17005KT P6SM BKN100
     FM011400 21004KT P6SM BKN080
     FM011700 26009KT P6SM VCSH BKN060
     FM020000 29005KT P6SM SCT250=



000
FTUS41 KBOX 010533
TAFACK
TAF
KACK 010533Z 0106/0206 25007KT P6SM FEW250
     FM011600 22012KT P6SM BKN070
     FM020000 25009KT 6SM BR VCSH BKN070=



000
FTUS41 KBOX 010533
TAFPVD
TAF
KPVD 010533Z 0106/0206 26005KT P6SM SKC
     FM010900 23004KT P6SM BKN070
     FM011700 23011KT P6SM VCSH BKN070
     FM020100 23004KT P6SM BKN070
     FM020500 29005KT P6SM BKN070=



000
FTUS41 KBOX 010533
TAFORH
TAF
KORH 010533Z 0106/0206 23005KT P6SM SCT100
     FM010800 25005KT P6SM BKN070
     FM011600 25009KT P6SM VCSH BKN080
     FM020100 28007KT P6SM SCT070=



000
FTUS41 KBOX 010533
TAFACK
TAF
KACK 010533Z 0106/0206 25007KT P6SM FEW250
     FM011600 22012KT P6SM BKN070
     FM020000 25009KT 6SM BR VCSH BKN070=



000
FTUS41 KBOX 010533
TAFBDL
TAF
KBDL 010533Z 0106/0212 19006KT P6SM SCT100
     FM011400 21005KT P6SM BKN070
     FM011700 25009KT P6SM VCSH BKN060
     FM012300 29005KT P6SM BKN060
     FM020400 00000KT P6SM FEW250=



000
FTUS41 KBOX 010533
TAFBAF
TAF
KBAF 010533Z 0106/0206 17005KT P6SM BKN100
     FM011400 21004KT P6SM BKN080
     FM011700 26009KT P6SM VCSH BKN060
     FM020000 29005KT P6SM SCT250=



000
FTUS41 KBOX 010533
TAFBOS
TAF
KBOS 010533Z 0106/0212 24004KT P6SM SCT100
     FM010900 23004KT P6SM BKN060
     FM011300 23005KT P6SM SCT090
     FM011700 24008KT P6SM VCSH BKN070
     FM020000 27007KT P6SM SCT090=



000
FTUS41 KBOX 010533
TAFPVD
TAF
KPVD 010533Z 0106/0206 26005KT P6SM SKC
     FM010900 23004KT P6SM BKN070
     FM011700 23011KT P6SM VCSH BKN070
     FM020100 23004KT P6SM BKN070
     FM020500 29005KT P6SM BKN070=



000
FTUS41 KBOX 010533
TAFPVD
TAF
KPVD 010533Z 0106/0206 26005KT P6SM SKC
     FM010900 23004KT P6SM BKN070
     FM011700 23011KT P6SM VCSH BKN070
     FM020100 23004KT P6SM BKN070
     FM020500 29005KT P6SM BKN070=



000
FTUS41 KBOX 010533
TAFBOS
TAF
KBOS 010533Z 0106/0212 24004KT P6SM SCT100
     FM010900 23004KT P6SM BKN060
     FM011300 23005KT P6SM SCT090
     FM011700 24008KT P6SM VCSH BKN070
     FM020000 27007KT P6SM SCT090=



000
FTUS41 KBOX 312329
TAFBOS
TAF
KBOS 312329Z 0100/0206 27012KT P6SM FEW060
     FM010400 25005KT P6SM SKC
     FM011800 24008KT P6SM BKN060
     FM020100 27005KT P6SM SCT080=



000
FTUS41 KBOX 312329
TAFPVD
TAF
KPVD 312329Z 0100/0124 29006KT P6SM FEW060
     FM010400 26004KT P6SM FEW120
     FM011000 23004KT P6SM FEW250
     FM011600 23008KT P6SM SCT070
     FM011800 23010G17KT P6SM BKN060=



000
FTUS41 KBOX 312329
TAFORH
TAF
KORH 312329Z 0100/0124 27006KT P6SM SKC
     FM011000 26006KT P6SM SKC
     FM011800 25008KT P6SM BKN060=



000
FTUS41 KBOX 312329
TAFBAF
TAF
KBAF 312329Z 0100/0124 28004KT P6SM SKC
     FM010300 00000KT P6SM SKC
     FM011800 25007KT P6SM BKN060
     FM012200 28005KT P6SM SCT070=



000
FTUS41 KBOX 312329
TAFBOS
TAF
KBOS 312329Z 0100/0206 27012KT P6SM FEW060
     FM010400 25005KT P6SM SKC
     FM011800 24008KT P6SM BKN060
     FM020100 27005KT P6SM SCT080=



000
FTUS41 KBOX 312329
TAFBDL
TAF
KBDL 312329Z 0100/0206 31004KT P6SM FEW060
     FM010400 VRB03KT P6SM FEW100
     FM011500 24006KT P6SM BKN070
     FM012200 27005KT P6SM SCT060
     FM020500 00000KT P6SM SCT250=



000
FTUS41 KBOX 312329
TAFACK
TAF
KACK 312329Z 0100/0124 23009KT P6SM SKC
     FM010900 24006KT 5SM BR FEW250
     FM011200 22006KT P6SM FEW250
     FM011600 22010KT P6SM FEW070=



000
FTUS41 KBOX 312329
TAFPVD
TAF
KPVD 312329Z 0100/0124 29006KT P6SM FEW060
     FM010400 26004KT P6SM FEW120
     FM011000 23004KT P6SM FEW250
     FM011600 23008KT P6SM SCT070
     FM011800 23010G17KT P6SM BKN060=



000
FTUS41 KBOX 312329
TAFACK
TAF
KACK 312329Z 0100/0124 23009KT P6SM SKC
     FM010900 24006KT 5SM BR FEW250
     FM011200 22006KT P6SM FEW250
     FM011600 22010KT P6SM FEW070=



000
FTUS41 KBOX 312329
TAFBOS
TAF
KBOS 312329Z 0100/0206 27012KT P6SM FEW060
     FM010400 25005KT P6SM SKC
     FM011800 24008KT P6SM BKN060
     FM020100 27005KT P6SM SCT080=



000
FTUS41 KBOX 312329
TAFPVD
TAF
KPVD 312329Z 0100/0124 29006KT P6SM FEW060
     FM010400 26004KT P6SM FEW120
     FM011000 23004KT P6SM FEW250
     FM011600 23008KT P6SM SCT070
     FM011800 23010G17KT P6SM BKN060=



000
FTUS41 KBOX 312329
TAFACK
TAF
KACK 312329Z 0100/0124 23009KT P6SM SKC
     FM010900 24006KT 5SM BR FEW250
     FM011200 22006KT P6SM FEW250
     FM011600 22010KT P6SM FEW070=



000
FTUS41 KBOX 312329
TAFBOS
TAF
KBOS 312329Z 0100/0206 27012KT P6SM FEW060
     FM010400 25005KT P6SM SKC
     FM011800 24008KT P6SM BKN060
     FM020100 27005KT P6SM SCT080=



000
FTUS41 KBOX 312329
TAFBDL
TAF
KBDL 312329Z 0100/0206 31004KT P6SM FEW060
     FM010400 VRB03KT P6SM FEW100
     FM011500 24006KT P6SM BKN070
     FM012200 27005KT P6SM SCT060
     FM020500 00000KT P6SM SCT250=



000
FTUS41 KBOX 312329
TAFORH
TAF
KORH 312329Z 0100/0124 27006KT P6SM SKC
     FM011000 26006KT P6SM SKC
     FM011800 25008KT P6SM BKN060=



000
FTUS41 KBOX 312329
TAFBDL
TAF
KBDL 312329Z 0100/0206 31004KT P6SM FEW060
     FM010400 VRB03KT P6SM FEW100
     FM011500 24006KT P6SM BKN070
     FM012200 27005KT P6SM SCT060
     FM020500 00000KT P6SM SCT250=



000
FTUS41 KBOX 312329
TAFBAF
TAF
KBAF 312329Z 0100/0124 28004KT P6SM SKC
     FM010300 00000KT P6SM SKC
     FM011800 25007KT P6SM BKN060
     FM012200 28005KT P6SM SCT070=



000
FTUS41 KBOX 312329
TAFBAF
TAF
KBAF 312329Z 0100/0124 28004KT P6SM SKC
     FM010300 00000KT P6SM SKC
     FM011800 25007KT P6SM BKN060
     FM012200 28005KT P6SM SCT070=



000
FTUS41 KBOX 312329
TAFPVD
TAF
KPVD 312329Z 0100/0124 29006KT P6SM FEW060
     FM010400 26004KT P6SM FEW120
     FM011000 23004KT P6SM FEW250
     FM011600 23008KT P6SM SCT070
     FM011800 23010G17KT P6SM BKN060=



000
FTUS41 KBOX 312329
TAFORH
TAF
KORH 312329Z 0100/0124 27006KT P6SM SKC
     FM011000 26006KT P6SM SKC
     FM011800 25008KT P6SM BKN060=



000
FTUS41 KBOX 312329
TAFACK
TAF
KACK 312329Z 0100/0124 23009KT P6SM SKC
     FM010900 24006KT 5SM BR FEW250
     FM011200 22006KT P6SM FEW250
     FM011600 22010KT P6SM FEW070=



000
FTUS41 KBOX 312329
TAFORH
TAF
KORH 312329Z 0100/0124 27006KT P6SM SKC
     FM011000 26006KT P6SM SKC
     FM011800 25008KT P6SM BKN060=



000
FTUS41 KBOX 312329
TAFBAF
TAF
KBAF 312329Z 0100/0124 28004KT P6SM SKC
     FM010300 00000KT P6SM SKC
     FM011800 25007KT P6SM BKN060
     FM012200 28005KT P6SM SCT070=



000
FTUS41 KBOX 312329
TAFBDL
TAF
KBDL 312329Z 0100/0206 31004KT P6SM FEW060
     FM010400 VRB03KT P6SM FEW100
     FM011500 24006KT P6SM BKN070
     FM012200 27005KT P6SM SCT060
     FM020500 00000KT P6SM SCT250=



000
FTUS41 KBOX 312055 AAA
TAFPVD
TAF AMD
KPVD 312055Z 3121/0118 28010KT P6SM FEW060
     FM010200 25005KT P6SM FEW250
     FM011700 23009KT P6SM SCT060=



000
FTUS41 KBOX 312055 AAA
TAFPVD
TAF AMD
KPVD 312055Z 3121/0118 28010KT P6SM FEW060
     FM010200 25005KT P6SM FEW250
     FM011700 23009KT P6SM SCT060=



000
FTUS41 KBOX 312055 AAA
TAFPVD
TAF AMD
KPVD 312055Z 3121/0118 28010KT P6SM FEW060
     FM010200 25005KT P6SM FEW250
     FM011700 23009KT P6SM SCT060=



000
FTUS41 KBOX 312053 AAA
TAFBDL
TAF AMD
KBDL 312053Z 3121/0124 28011KT P6SM SCT070
     FM010300 25003KT P6SM SCT070
     FM011500 24006KT P6SM FEW060
     FM012000 27005KT P6SM SCT060=



000
FTUS41 KBOX 312053 AAA
TAFBDL
TAF AMD
KBDL 312053Z 3121/0124 28011KT P6SM SCT070
     FM010300 25003KT P6SM SCT070
     FM011500 24006KT P6SM FEW060
     FM012000 27005KT P6SM SCT060=



000
FTUS41 KBOX 312050 AAA
TAFBOS
TAF AMD
KBOS 312050Z 3121/0124 28014G24KT P6SM SCT050
     FM312300 28011KT P6SM FEW060
     FM010100 27008KT P6SM FEW150
     FM011100 22004KT P6SM SCT080
     FM011800 24008KT P6SM BKN060=



000
FTUS41 KBOX 312050 AAA
TAFBOS
TAF AMD
KBOS 312050Z 3121/0124 28014G24KT P6SM SCT050
     FM312300 28011KT P6SM FEW060
     FM010100 27008KT P6SM FEW150
     FM011100 22004KT P6SM SCT080
     FM011800 24008KT P6SM BKN060=



000
FTUS41 KBOX 311727
TAFACK
TAF
KACK 311727Z 3118/0118 25011KT P6SM FEW250
     FM010900 24007KT 5SM BR FEW250
     FM011200 22006KT P6SM FEW250
     FM011600 22010KT P6SM FEW070=



000
FTUS41 KBOX 311727
TAFPVD
TAF
KPVD 311727Z 3118/0118 26010G20KT P6SM FEW060
     FM010000 27005KT P6SM FEW250
     FM011700 23009KT P6SM SCT060=



000
FTUS41 KBOX 311727
TAFACK
TAF
KACK 311727Z 3118/0118 25011KT P6SM FEW250
     FM010900 24007KT 5SM BR FEW250
     FM011200 22006KT P6SM FEW250
     FM011600 22010KT P6SM FEW070=



000
FTUS41 KBOX 311727
TAFORH
TAF
KORH 311727Z 3118/0118 27011G21KT P6SM FEW050
     FM010000 28006KT P6SM FEW250
     FM011600 26011KT P6SM SCT050=



000
FTUS41 KBOX 311727
TAFBDL
TAF
KBDL 311727Z 3118/0124 28010G18KT P6SM FEW050
     FM312200 29008KT P6SM SKC
     FM010500 VRB03KT P6SM SCT070
     FM011500 24006KT P6SM FEW060
     FM012000 27005KT P6SM SCT060=



000
FTUS41 KBOX 311727
TAFPVD
TAF
KPVD 311727Z 3118/0118 26010G20KT P6SM FEW060
     FM010000 27005KT P6SM FEW250
     FM011700 23009KT P6SM SCT060=



000
FTUS41 KBOX 311727
TAFORH
TAF
KORH 311727Z 3118/0118 27011G21KT P6SM FEW050
     FM010000 28006KT P6SM FEW250
     FM011600 26011KT P6SM SCT050=



000
FTUS41 KBOX 311727
TAFBAF
TAF
KBAF 311727Z 3118/0118 26011KT P6SM FEW050
     FM312200 29005KT P6SM FEW250
     FM010400 00000KT P6SM SCT250
     FM011600 25006KT P6SM SCT060=



000
FTUS41 KBOX 311727
TAFBDL
TAF
KBDL 311727Z 3118/0124 28010G18KT P6SM FEW050
     FM312200 29008KT P6SM SKC
     FM010500 VRB03KT P6SM SCT070
     FM011500 24006KT P6SM FEW060
     FM012000 27005KT P6SM SCT060=



000
FTUS41 KBOX 311727
TAFBAF
TAF
KBAF 311727Z 3118/0118 26011KT P6SM FEW050
     FM312200 29005KT P6SM FEW250
     FM010400 00000KT P6SM SCT250
     FM011600 25006KT P6SM SCT060=



000
FTUS41 KBOX 311727
TAFBOS
TAF
KBOS 311727Z 3118/0124 25011G20KT P6SM SCT040
     FM312300 28008KT P6SM FEW250
     FM011100 22004KT P6SM SCT080
     FM011800 24008KT P6SM BKN060=



000
FTUS41 KBOX 311727
TAFBOS
TAF
KBOS 311727Z 3118/0124 25011G20KT P6SM SCT040
     FM312300 28008KT P6SM FEW250
     FM011100 22004KT P6SM SCT080
     FM011800 24008KT P6SM BKN060=



000
FTUS41 KBOX 311727
TAFPVD
TAF
KPVD 311727Z 3118/0118 26010G20KT P6SM FEW060
     FM010000 27005KT P6SM FEW250
     FM011700 23009KT P6SM SCT060=



000
FTUS41 KBOX 311727
TAFACK
TAF
KACK 311727Z 3118/0118 25011KT P6SM FEW250
     FM010900 24007KT 5SM BR FEW250
     FM011200 22006KT P6SM FEW250
     FM011600 22010KT P6SM FEW070=



000
FTUS41 KBOX 311727
TAFACK
TAF
KACK 311727Z 3118/0118 25011KT P6SM FEW250
     FM010900 24007KT 5SM BR FEW250
     FM011200 22006KT P6SM FEW250
     FM011600 22010KT P6SM FEW070=



000
FTUS41 KBOX 311727
TAFBAF
TAF
KBAF 311727Z 3118/0118 26011KT P6SM FEW050
     FM312200 29005KT P6SM FEW250
     FM010400 00000KT P6SM SCT250
     FM011600 25006KT P6SM SCT060=



000
FTUS41 KBOX 311727
TAFORH
TAF
KORH 311727Z 3118/0118 27011G21KT P6SM FEW050
     FM010000 28006KT P6SM FEW250
     FM011600 26011KT P6SM SCT050=



000
FTUS41 KBOX 311727
TAFORH
TAF
KORH 311727Z 3118/0118 27011G21KT P6SM FEW050
     FM010000 28006KT P6SM FEW250
     FM011600 26011KT P6SM SCT050=



000
FTUS41 KBOX 311727
TAFBDL
TAF
KBDL 311727Z 3118/0124 28010G18KT P6SM FEW050
     FM312200 29008KT P6SM SKC
     FM010500 VRB03KT P6SM SCT070
     FM011500 24006KT P6SM FEW060
     FM012000 27005KT P6SM SCT060=



000
FTUS41 KBOX 311727
TAFPVD
TAF
KPVD 311727Z 3118/0118 26010G20KT P6SM FEW060
     FM010000 27005KT P6SM FEW250
     FM011700 23009KT P6SM SCT060=



000
FTUS41 KBOX 311727
TAFBAF
TAF
KBAF 311727Z 3118/0118 26011KT P6SM FEW050
     FM312200 29005KT P6SM FEW250
     FM010400 00000KT P6SM SCT250
     FM011600 25006KT P6SM SCT060=



000
FTUS41 KBOX 311727
TAFBDL
TAF
KBDL 311727Z 3118/0124 28010G18KT P6SM FEW050
     FM312200 29008KT P6SM SKC
     FM010500 VRB03KT P6SM SCT070
     FM011500 24006KT P6SM FEW060
     FM012000 27005KT P6SM SCT060=



000
FTUS41 KBOX 311607 AAB
TAFBOS
TAF AMD
KBOS 311607Z 3116/0118 24012G22KT P6SM FEW040
     FM312000 26011G19KT P6SM SCT250
     FM312300 27012KT P6SM FEW250
     FM010500 26004KT P6SM FEW250
     FM011200 22004KT P6SM BKN060=



000
FTUS41 KBOX 311607 AAB
TAFBOS
TAF AMD
KBOS 311607Z 3116/0118 24012G22KT P6SM FEW040
     FM312000 26011G19KT P6SM SCT250
     FM312300 27012KT P6SM FEW250
     FM010500 26004KT P6SM FEW250
     FM011200 22004KT P6SM BKN060=



000
FTUS41 KBOX 311518 AAA
TAFBOS
TAF AMD
KBOS 311518Z 3115/0118 28011KT P6SM FEW040 SCT200
     FM311900 28012G18KT P6SM SCT250
     FM312300 28012KT P6SM FEW250
     FM010500 26004KT P6SM FEW250
     FM011200 22004KT P6SM BKN060=



000
FTUS41 KBOX 311518 AAA
TAFBDL
TAF AMD
KBDL 311518Z 3115/0118 28010KT P6SM FEW040 FEW250
     FM311800 27012KT P6SM FEW250
     FM312300 30008KT P6SM SKC
     FM010500 00000KT P6SM FEW250
     FM011500 23006KT P6SM SCT250=



000
FTUS41 KBOX 311518 AAA
TAFPVD
TAF AMD
KPVD 311518Z 3115/0112 28008KT P6SM FEW040 FEW250
     FM311900 26012KT P6SM FEW250
     FM010000 28005KT P6SM FEW250
     FM011100 22005KT P6SM FEW090=



000
FTUS41 KBOX 311518 AAA
TAFBDL
TAF AMD
KBDL 311518Z 3115/0118 28010KT P6SM FEW040 FEW250
     FM311800 27012KT P6SM FEW250
     FM312300 30008KT P6SM SKC
     FM010500 00000KT P6SM FEW250
     FM011500 23006KT P6SM SCT250=



000
FTUS41 KBOX 311518 AAA
TAFBDL
TAF AMD
KBDL 311518Z 3115/0118 28010KT P6SM FEW040 FEW250
     FM311800 27012KT P6SM FEW250
     FM312300 30008KT P6SM SKC
     FM010500 00000KT P6SM FEW250
     FM011500 23006KT P6SM SCT250=



000
FTUS41 KBOX 311518 AAA
TAFBDL
TAF AMD
KBDL 311518Z 3115/0118 28010KT P6SM FEW040 FEW250
     FM311800 27012KT P6SM FEW250
     FM312300 30008KT P6SM SKC
     FM010500 00000KT P6SM FEW250
     FM011500 23006KT P6SM SCT250=



000
FTUS41 KBOX 311518 AAA
TAFPVD
TAF AMD
KPVD 311518Z 3115/0112 28008KT P6SM FEW040 FEW250
     FM311900 26012KT P6SM FEW250
     FM010000 28005KT P6SM FEW250
     FM011100 22005KT P6SM FEW090=



000
FTUS41 KBOX 311518 AAA
TAFBOS
TAF AMD
KBOS 311518Z 3115/0118 28011KT P6SM FEW040 SCT200
     FM311900 28012G18KT P6SM SCT250
     FM312300 28012KT P6SM FEW250
     FM010500 26004KT P6SM FEW250
     FM011200 22004KT P6SM BKN060=



000
FTUS41 KBOX 311518 AAA
TAFBOS
TAF AMD
KBOS 311518Z 3115/0118 28011KT P6SM FEW040 SCT200
     FM311900 28012G18KT P6SM SCT250
     FM312300 28012KT P6SM FEW250
     FM010500 26004KT P6SM FEW250
     FM011200 22004KT P6SM BKN060=



000
FTUS41 KBOX 311518 AAA
TAFPVD
TAF AMD
KPVD 311518Z 3115/0112 28008KT P6SM FEW040 FEW250
     FM311900 26012KT P6SM FEW250
     FM010000 28005KT P6SM FEW250
     FM011100 22005KT P6SM FEW090=



000
FTUS41 KBOX 311120
TAFBAF
TAF
KBAF 311120Z 3112/0112 VRB03KT P6SM SCT250
     FM311500 28012KT P6SM FEW250
     FM010000 VRB03KT P6SM SKC=



000
FTUS41 KBOX 311120
TAFPVD
TAF
KPVD 311120Z 3112/0112 28005KT P6SM FEW250
     FM311700 25012KT P6SM FEW250
     FM010000 28005KT P6SM FEW250
     FM011100 22005KT P6SM FEW090=



000
FTUS41 KBOX 311120
TAFBOS
TAF
KBOS 311120Z 3112/0118 27008KT P6SM FEW250
     FM311800 26012G18KT P6SM FEW250
     FM312300 28012KT P6SM FEW250
     FM010500 26004KT P6SM FEW250
     FM011200 22004KT P6SM BKN060=



000
FTUS41 KBOX 311120
TAFACK
TAF
KACK 311120Z 3112/0112 26005KT 6SM BR BKN060
     FM311300 26008KT P6SM SCT250
     FM011100 22006KT 6SM BR FEW250=



000
FTUS41 KBOX 311120
TAFBDL
TAF
KBDL 311120Z 3112/0118 00000KT P6SM FEW250
     FM311500 28008KT P6SM FEW250
     FM311800 27012KT P6SM FEW250
     FM312300 30008KT P6SM SKC
     FM010500 00000KT P6SM FEW250
     FM011500 23006KT P6SM SCT250=



000
FTUS41 KBOX 311120
TAFORH
TAF
KORH 311120Z 3112/0112 28008KT P6SM FEW250
     FM311800 27012G20KT P6SM FEW250
     FM312300 28010KT P6SM SKC
     FM010900 24005KT P6SM BKN070=



000
FTUS41 KBOX 311120
TAFBOS
TAF
KBOS 311120Z 3112/0118 27008KT P6SM FEW250
     FM311800 26012G18KT P6SM FEW250
     FM312300 28012KT P6SM FEW250
     FM010500 26004KT P6SM FEW250
     FM011200 22004KT P6SM BKN060=



000
FTUS41 KBOX 311120
TAFACK
TAF
KACK 311120Z 3112/0112 26005KT 6SM BR BKN060
     FM311300 26008KT P6SM SCT250
     FM011100 22006KT 6SM BR FEW250=



000
FTUS41 KBOX 311120
TAFORH
TAF
KORH 311120Z 3112/0112 28008KT P6SM FEW250
     FM311800 27012G20KT P6SM FEW250
     FM312300 28010KT P6SM SKC
     FM010900 24005KT P6SM BKN070=



000
FTUS41 KBOX 311120
TAFBDL
TAF
KBDL 311120Z 3112/0118 00000KT P6SM FEW250
     FM311500 28008KT P6SM FEW250
     FM311800 27012KT P6SM FEW250
     FM312300 30008KT P6SM SKC
     FM010500 00000KT P6SM FEW250
     FM011500 23006KT P6SM SCT250=



000
FTUS41 KBOX 311120
TAFPVD
TAF
KPVD 311120Z 3112/0112 28005KT P6SM FEW250
     FM311700 25012KT P6SM FEW250
     FM010000 28005KT P6SM FEW250
     FM011100 22005KT P6SM FEW090=



000
FTUS41 KBOX 311120
TAFBAF
TAF
KBAF 311120Z 3112/0112 VRB03KT P6SM SCT250
     FM311500 28012KT P6SM FEW250
     FM010000 VRB03KT P6SM SKC=



000
FTUS41 KBOX 310819 AAA
TAFACK
TAF AMD
KACK 310819Z 3108/0106 27006KT P6SM BKN003
     FM311400 26007KT P6SM SKC=



000
FTUS41 KBOX 310819 AAA
TAFACK
TAF AMD
KACK 310819Z 3108/0106 27006KT P6SM BKN003
     FM311400 26007KT P6SM SKC=



000
FTUS41 KBOX 310813 AAA
TAFPVD
TAF AMD
KPVD 310813Z 3108/0106 25004KT P6SM SCT080
     FM311500 25010G20KT P6SM SKC
     FM010000 24006KT P6SM FEW250=



000
FTUS41 KBOX 310813 AAA
TAFPVD
TAF AMD
KPVD 310813Z 3108/0106 25004KT P6SM SCT080
     FM311500 25010G20KT P6SM SKC
     FM010000 24006KT P6SM FEW250=



000
FTUS41 KBOX 310812 AAA
TAFBDL
TAF AMD
KBDL 310812Z 3108/0112 00000KT 2SM BR FEW002
     FM311300 27006KT P6SM SKC
     FM010500 00000KT P6SM FEW250=



000
FTUS41 KBOX 310812 AAA
TAFBDL
TAF AMD
KBDL 310812Z 3108/0112 00000KT 2SM BR FEW002
     FM311300 27006KT P6SM SKC
     FM010500 00000KT P6SM FEW250=



000
FTUS41 KBOX 310812 AAA
TAFBAF
TAF AMD
KBAF 310812Z 3108/0106 00000KT 2SM BR FEW002
     FM311300 29008KT P6SM SKC
     FM010000 VRB03KT P6SM SKC=



000
FTUS41 KBOX 310812 AAA
TAFBAF
TAF AMD
KBAF 310812Z 3108/0106 00000KT 2SM BR FEW002
     FM311300 29008KT P6SM SKC
     FM010000 VRB03KT P6SM SKC=



000
FTUS41 KBOX 310811 AAA
TAFBOS
TAF AMD
KBOS 310811Z 3108/0112 27006KT P6SM FEW070
     FM311600 27011G20KT P6SM SCT050
     FM010000 28008KT P6SM SKC
     FM011100 22004KT P6SM SCT250=



000
FTUS41 KBOX 310811 AAA
TAFBOS
TAF AMD
KBOS 310811Z 3108/0112 27006KT P6SM FEW070
     FM311600 27011G20KT P6SM SCT050
     FM010000 28008KT P6SM SKC
     FM011100 22004KT P6SM SCT250=



000
FTUS41 KBOX 310533
TAFACK
TAF
KACK 310533Z 3106/0106 21006KT P6SM BKN002 OVC012
     FM311000 26008KT 6SM BR SCT012 BKN050
     FM311400 26007KT P6SM SCT250=



000
FTUS41 KBOX 310533
TAFACK
TAF
KACK 310533Z 3106/0106 21006KT P6SM BKN002 OVC012
     FM311000 26008KT 6SM BR SCT012 BKN050
     FM311400 26007KT P6SM SCT250=



000
FTUS41 KBOX 310533
TAFBDL
TAF
KBDL 310533Z 3106/0112 VRB03KT 4SM BR SCT002
     FM311300 27006KT P6SM SKC
     FM010500 00000KT P6SM FEW250=



000
FTUS41 KBOX 310533
TAFORH
TAF
KORH 310533Z 3106/0106 25007KT P6SM SKC=



000
FTUS41 KBOX 310533
TAFPVD
TAF
KPVD 310533Z 3106/0106 20004KT P6SM SCT009 BKN090
     FM310700 26005KT 6SM BR BKN250
     FM311400 27008KT P6SM SKC=



000
FTUS41 KBOX 310533
TAFBAF
TAF
KBAF 310533Z 3106/0106 00000KT 1/4SM FG VV002
     FM311300 29008KT P6SM SKC
     FM010000 VRB03KT P6SM SKC=



000
FTUS41 KBOX 310533
TAFBOS
TAF
KBOS 310533Z 3106/0112 22010KT P6SM FEW070
     FM311100 28006KT P6SM FEW250
     FM011100 22004KT P6SM SCT250=



000
FTUS41 KBOX 310533
TAFPVD
TAF
KPVD 310533Z 3106/0106 20004KT P6SM SCT009 BKN090
     FM310700 26005KT 6SM BR BKN250
     FM311400 27008KT P6SM SKC=



000
FTUS41 KBOX 310533
TAFBOS
TAF
KBOS 310533Z 3106/0112 22010KT P6SM FEW070
     FM311100 28006KT P6SM FEW250
     FM011100 22004KT P6SM SCT250=



000
FTUS41 KBOX 310533
TAFORH
TAF
KORH 310533Z 3106/0106 25007KT P6SM SKC=



000
FTUS41 KBOX 310533
TAFBAF
TAF
KBAF 310533Z 3106/0106 00000KT 1/4SM FG VV002
     FM311300 29008KT P6SM SKC
     FM010000 VRB03KT P6SM SKC=



000
FTUS41 KBOX 310533
TAFBDL
TAF
KBDL 310533Z 3106/0112 VRB03KT 4SM BR SCT002
     FM311300 27006KT P6SM SKC
     FM010500 00000KT P6SM FEW250=



000
FTUS41 KBOX 310533
TAFORH
TAF
KORH 310533Z 3106/0106 25007KT P6SM SKC=



000
FTUS41 KBOX 310533
TAFBAF
TAF
KBAF 310533Z 3106/0106 00000KT 1/4SM FG VV002
     FM311300 29008KT P6SM SKC
     FM010000 VRB03KT P6SM SKC=



000
FTUS41 KBOX 310533
TAFBOS
TAF
KBOS 310533Z 3106/0112 22010KT P6SM FEW070
     FM311100 28006KT P6SM FEW250
     FM011100 22004KT P6SM SCT250=



000
FTUS41 KBOX 310533
TAFACK
TAF
KACK 310533Z 3106/0106 21006KT P6SM BKN002 OVC012
     FM311000 26008KT 6SM BR SCT012 BKN050
     FM311400 26007KT P6SM SCT250=



000
FTUS41 KBOX 310533
TAFPVD
TAF
KPVD 310533Z 3106/0106 20004KT P6SM SCT009 BKN090
     FM310700 26005KT 6SM BR BKN250
     FM311400 27008KT P6SM SKC=



000
FTUS41 KBOX 310533
TAFBDL
TAF
KBDL 310533Z 3106/0112 VRB03KT 4SM BR SCT002
     FM311300 27006KT P6SM SKC
     FM010500 00000KT P6SM FEW250=



000
FTUS41 KBOX 310533
TAFORH
TAF
KORH 310533Z 3106/0106 25007KT P6SM SKC=



000
FTUS41 KBOX 310533
TAFBOS
TAF
KBOS 310533Z 3106/0112 22010KT P6SM FEW070
     FM311100 28006KT P6SM FEW250
     FM011100 22004KT P6SM SCT250=



000
FTUS41 KBOX 310533
TAFBAF
TAF
KBAF 310533Z 3106/0106 00000KT 1/4SM FG VV002
     FM311300 29008KT P6SM SKC
     FM010000 VRB03KT P6SM SKC=



000
FTUS41 KBOX 310533
TAFBDL
TAF
KBDL 310533Z 3106/0112 VRB03KT 4SM BR SCT002
     FM311300 27006KT P6SM SKC
     FM010500 00000KT P6SM FEW250=



000
FTUS41 KBOX 310533
TAFPVD
TAF
KPVD 310533Z 3106/0106 20004KT P6SM SCT009 BKN090
     FM310700 26005KT 6SM BR BKN250
     FM311400 27008KT P6SM SKC=



000
FTUS41 KBOX 310310 AAA
TAFPVD
TAF AMD
KPVD 310310Z 3103/3124 21004KT P6SM BKN012 OVC060
     FM310800 27004KT P6SM SCT012
     FM311800 26008KT P6SM FEW250=



000
FTUS41 KBOX 310310 AAA
TAFPVD
TAF AMD
KPVD 310310Z 3103/3124 21004KT P6SM BKN012 OVC060
     FM310800 27004KT P6SM SCT012
     FM311800 26008KT P6SM FEW250=



000
FTUS41 KBOX 310310 AAA
TAFPVD
TAF AMD
KPVD 310310Z 3103/3124 21004KT P6SM BKN012 OVC060
     FM310800 27004KT P6SM SCT012
     FM311800 26008KT P6SM FEW250=



000
FTUS41 KBOX 310306 AAA
TAFBDL
TAF AMD
KBDL 310306Z 3103/0106 19005KT P6SM FEW009 SCT015
     FM310800 00000KT 4SM BR SCT009
     FM311300 27006KT P6SM SKC
     FM311700 29007KT P6SM FEW250
     FM010400 VRB03KT P6SM FEW250=



000
FTUS41 KBOX 310306 AAA
TAFBDL
TAF AMD
KBDL 310306Z 3103/0106 19005KT P6SM FEW009 SCT015
     FM310800 00000KT 4SM BR SCT009
     FM311300 27006KT P6SM SKC
     FM311700 29007KT P6SM FEW250
     FM010400 VRB03KT P6SM FEW250=



000
FTUS41 KBOX 310304 AAA
TAFBOS
TAF AMD
KBOS 310304Z 3103/0106 22011KT P6SM SCT060 BKN090
     FM311100 28007KT P6SM FEW250=



000
FTUS41 KBOX 310304 AAA
TAFBOS
TAF AMD
KBOS 310304Z 3103/0106 22011KT P6SM SCT060 BKN090
     FM311100 28007KT P6SM FEW250=



000
FTUS41 KBOX 310303 AAC
TAFORH
TAF AMD
KORH 310303Z 3103/3124 26010KT P6SM BKN005
     FM310600 26007KT P6SM SCT005
     FM311500 27011KT P6SM SKC=



000
FTUS41 KBOX 310303 AAC
TAFORH
TAF AMD
KORH 310303Z 3103/3124 26010KT P6SM BKN005
     FM310600 26007KT P6SM SCT005
     FM311500 27011KT P6SM SKC=



000
FTUS41 KBOX 310303 AAC
TAFORH
TAF AMD
KORH 310303Z 3103/3124 26010KT P6SM BKN005
     FM310600 26007KT P6SM SCT005
     FM311500 27011KT P6SM SKC=



000
FTUS41 KBOX 310303 AAC
TAFORH
TAF AMD
KORH 310303Z 3103/3124 26010KT P6SM BKN005
     FM310600 26007KT P6SM SCT005
     FM311500 27011KT P6SM SKC=



000
FTUS41 KBOX 310216 AAA
TAFBAF
TAF AMD
KBAF 310216Z 3102/3124 00000KT 1SM BR SKC
     FM311200 29004KT P6SM SCT250
     FM311700 29007KT P6SM FEW250=



000
FTUS41 KBOX 310216 AAA
TAFBAF
TAF AMD
KBAF 310216Z 3102/3124 00000KT 1SM BR SKC
     FM311200 29004KT P6SM SCT250
     FM311700 29007KT P6SM FEW250=



000
FTUS41 KBOX 310211 AAA
TAFACK
TAF AMD
KACK 310211Z 3102/3124 21007KT P6SM VCSH BKN070
     FM310900 24009KT 4SM BR VCSH BKN050
     FM311300 28008KT P6SM SCT003 BKN050
     FM311400 25008KT P6SM SCT060=



000
FTUS41 KBOX 310211 AAA
TAFACK
TAF AMD
KACK 310211Z 3102/3124 21007KT P6SM VCSH BKN070
     FM310900 24009KT 4SM BR VCSH BKN050
     FM311300 28008KT P6SM SCT003 BKN050
     FM311400 25008KT P6SM SCT060=



000
FTUS41 KBOX 310211 AAA
TAFACK
TAF AMD
KACK 310211Z 3102/3124 21007KT P6SM VCSH BKN070
     FM310900 24009KT 4SM BR VCSH BKN050
     FM311300 28008KT P6SM SCT003 BKN050
     FM311400 25008KT P6SM SCT060=



000
FTUS41 KBOX 310211 AAA
TAFACK
TAF AMD
KACK 310211Z 3102/3124 21007KT P6SM VCSH BKN070
     FM310900 24009KT 4SM BR VCSH BKN050
     FM311300 28008KT P6SM SCT003 BKN050
     FM311400 25008KT P6SM SCT060=



000
FTUS41 KBOX 310056 AAB
TAFORH
TAF AMD
KORH 310056Z 3101/3124 22011KT P6SM VCSH SCT007 BKN100
     FM310200 24008KT P6SM FEW006 SCT012 BKN050
     FM310500 26007KT P6SM SCT250=



000
FTUS41 KBOX 310056 AAB
TAFORH
TAF AMD
KORH 310056Z 3101/3124 22011KT P6SM VCSH SCT007 BKN100
     FM310200 24008KT P6SM FEW006 SCT012 BKN050
     FM310500 26007KT P6SM SCT250=



000
FTUS41 KBOX 310056 AAB
TAFORH
TAF AMD
KORH 310056Z 3101/3124 22011KT P6SM VCSH SCT007 BKN100
     FM310200 24008KT P6SM FEW006 SCT012 BKN050
     FM310500 26007KT P6SM SCT250=



000
FTUS41 KBOX 310056 AAB
TAFORH
TAF AMD
KORH 310056Z 3101/3124 22011KT P6SM VCSH SCT007 BKN100
     FM310200 24008KT P6SM FEW006 SCT012 BKN050
     FM310500 26007KT P6SM SCT250=



000
FTUS41 KBOX 310013 AAA
TAFORH
TAF AMD
KORH 310013Z 3100/3124 22011KT P6SM OVC006
     FM310030 22012KT 5SM SHRA BKN006 BKN080
     FM310130 24008KT 6SM BR FEW006 SCT012 BKN050
     FM310500 26007KT P6SM SCT250=



000
FTUS41 KBOX 310013 AAA
TAFORH
TAF AMD
KORH 310013Z 3100/3124 22011KT P6SM OVC006
     FM310030 22012KT 5SM SHRA BKN006 BKN080
     FM310130 24008KT 6SM BR FEW006 SCT012 BKN050
     FM310500 26007KT P6SM SCT250=



000
FTUS41 KBOX 302320
TAFACK
TAF
KACK 302320Z 3100/3124 21013G21KT P6SM -RA SCT003 BKN080
     FM310200 22011G19KT 2SM -RA BR OVC003
     FM310900 24009KT 6SM BR VCSH BKN003
     FM311300 28008KT P6SM SCT003 BKN050
     FM311400 25008KT P6SM SCT060=



000
FTUS41 KBOX 302320
TAFBOS
TAF
KBOS 302320Z 3100/0106 23013G22KT P6SM -RA BKN040
     FM310100 23010G18KT P6SM VCSH BKN060
     FM310500 24009KT P6SM BKN080
     FM310700 24009KT P6SM SCT250
     FM311100 28007KT P6SM FEW250=



000
FTUS41 KBOX 302320
TAFACK
TAF
KACK 302320Z 3100/3124 21013G21KT P6SM -RA SCT003 BKN080
     FM310200 22011G19KT 2SM -RA BR OVC003
     FM310900 24009KT 6SM BR VCSH BKN003
     FM311300 28008KT P6SM SCT003 BKN050
     FM311400 25008KT P6SM SCT060=



000
FTUS41 KBOX 302320
TAFPVD
TAF
KPVD 302320Z 3100/3124 21009KT P6SM -RA SCT015 OVC030
     FM310400 23005KT 6SM BR VCSH BKN040
     FM310600 24005KT 6SM BR BKN050
     FM310800 26004KT P6SM SCT060
     FM311800 26008KT P6SM FEW250=



000
FTUS41 KBOX 302320
TAFBOS
TAF
KBOS 302320Z 3100/0106 23013G22KT P6SM -RA BKN040
     FM310100 23010G18KT P6SM VCSH BKN060
     FM310500 24009KT P6SM BKN080
     FM310700 24009KT P6SM SCT250
     FM311100 28007KT P6SM FEW250=



000
FTUS41 KBOX 302320
TAFBAF
TAF
KBAF 302320Z 3100/3124 19006KT 6SM BR VCSH OVC030
     FM310100 20006KT 6SM BR BKN050
     FM310400 VRB03KT P6SM SCT250
     FM311700 29007KT P6SM FEW250=



000
FTUS41 KBOX 302320
TAFORH
TAF
KORH 302320Z 3100/3124 22008KT 6SM BR VCSH SCT025 BKN035
     FM310300 24008KT 6SM BR BKN050
     FM310500 26007KT P6SM SCT250=



000
FTUS41 KBOX 302320
TAFBDL
TAF
KBDL 302320Z 3100/0106 21007KT 6SM BR VCSH OVC050
     FM310200 VRB03KT P6SM SCT060
     FM311700 29007KT P6SM FEW250
     FM010400 VRB03KT P6SM FEW250=



000
FTUS41 KBOX 302206 AAD
TAFPVD
TAF AMD
KPVD 302206Z 3022/3118 21010G20KT P6SM BKN045
     FM302230 22010KT 5SM -SHRA BR BKN035 OVC050
     FM310000 21009KT P6SM BKN045
     FM310300 24006KT P6SM BKN025
     FM310700 25005KT P6SM SCT250=



000
FTUS41 KBOX 302206 AAB
TAFACK
TAF AMD
KACK 302206Z 3022/3118 22012KT P6SM SCT003
     FM302300 22012KT 6SM BR BKN008
     FM310200 22012KT 2SM BR OVC003
     FM311100 26009KT 6SM BR BKN004
     FM311300 25008KT P6SM SCT025=



000
FTUS41 KBOX 302206 AAC
TAFBOS
TAF AMD
KBOS 302206Z 3022/3124 23014G24KT P6SM SCT045 BKN050
     FM302230 23012KT 3SM -TSRA BR BKN025 OVC050CB
     FM302330 22010KT 6SM -SHRA BKN045
     FM310100 24010KT P6SM BKN050
     FM310500 24007KT P6SM SCT250=



000
FTUS41 KBOX 302206 AAB
TAFBAF
TAF AMD
KBAF 302206Z 3022/3118 20008KT P6SM VCSH BKN045
     FM310200 22004KT 5SM BR BKN040
     FM310400 24004KT 3SM BR SCT060=



000
FTUS41 KBOX 302206 AAC
TAFBDL
TAF AMD
KBDL 302206Z 3022/3124 20007KT P6SM VCSH SCT025 BKN045
     FM310300 23004KT 4SM BR SCT050
     FM311700 29007KT P6SM FEW250=



000
FTUS41 KBOX 302206 AAB
TAFACK
TAF AMD
KACK 302206Z 3022/3118 22012KT P6SM SCT003
     FM302300 22012KT 6SM BR BKN008
     FM310200 22012KT 2SM BR OVC003
     FM311100 26009KT 6SM BR BKN004
     FM311300 25008KT P6SM SCT025=



000
FTUS41 KBOX 302206 AAD
TAFPVD
TAF AMD
KPVD 302206Z 3022/3118 21010G20KT P6SM BKN045
     FM302230 22010KT 5SM -SHRA BR BKN035 OVC050
     FM310000 21009KT P6SM BKN045
     FM310300 24006KT P6SM BKN025
     FM310700 25005KT P6SM SCT250=



000
FTUS41 KBOX 302206 AAC
TAFBDL
TAF AMD
KBDL 302206Z 3022/3124 20007KT P6SM VCSH SCT025 BKN045
     FM310300 23004KT 4SM BR SCT050
     FM311700 29007KT P6SM FEW250=



000
FTUS41 KBOX 302206 AAB
TAFORH
TAF AMD
KORH 302206Z 3022/3118 21010G20KT 3SM -TSRA BR BKN025 OVC050CB
     FM302245 23009KT P6SM VCSH SCT025 OVC035
     FM310200 25008KT P6SM BKN040
     FM310500 26007KT 5SM BR SCT070=



000
FTUS41 KBOX 302206 AAB
TAFBAF
TAF AMD
KBAF 302206Z 3022/3118 20008KT P6SM VCSH BKN045
     FM310200 22004KT 5SM BR BKN040
     FM310400 24004KT 3SM BR SCT060=



000
FTUS41 KBOX 302206 AAC
TAFBOS
TAF AMD
KBOS 302206Z 3022/3124 23014G24KT P6SM SCT045 BKN050
     FM302230 23012KT 3SM -TSRA BR BKN025 OVC050CB
     FM302330 22010KT 6SM -SHRA BKN045
     FM310100 24010KT P6SM BKN050
     FM310500 24007KT P6SM SCT250=



000
FTUS41 KBOX 302206 AAB
TAFORH
TAF AMD
KORH 302206Z 3022/3118 21010G20KT 3SM -TSRA BR BKN025 OVC050CB
     FM302245 23009KT P6SM VCSH SCT025 OVC035
     FM310200 25008KT P6SM BKN040
     FM310500 26007KT 5SM BR SCT070=



000
FTUS41 KBOX 302206 AAC
TAFBOS
TAF AMD
KBOS 302206Z 3022/3124 23014G24KT P6SM SCT045 BKN050
     FM302230 23012KT 3SM -TSRA BR BKN025 OVC050CB
     FM302330 22010KT 6SM -SHRA BKN045
     FM310100 24010KT P6SM BKN050
     FM310500 24007KT P6SM SCT250=



000
FTUS41 KBOX 302206 AAB
TAFORH
TAF AMD
KORH 302206Z 3022/3118 21010G20KT 3SM -TSRA BR BKN025 OVC050CB
     FM302245 23009KT P6SM VCSH SCT025 OVC035
     FM310200 25008KT P6SM BKN040
     FM310500 26007KT 5SM BR SCT070=



000
FTUS41 KBOX 302206 AAB
TAFACK
TAF AMD
KACK 302206Z 3022/3118 22012KT P6SM SCT003
     FM302300 22012KT 6SM BR BKN008
     FM310200 22012KT 2SM BR OVC003
     FM311100 26009KT 6SM BR BKN004
     FM311300 25008KT P6SM SCT025=



000
FTUS41 KBOX 302206 AAC
TAFBDL
TAF AMD
KBDL 302206Z 3022/3124 20007KT P6SM VCSH SCT025 BKN045
     FM310300 23004KT 4SM BR SCT050
     FM311700 29007KT P6SM FEW250=



000
FTUS41 KBOX 302206 AAD
TAFPVD
TAF AMD
KPVD 302206Z 3022/3118 21010G20KT P6SM BKN045
     FM302230 22010KT 5SM -SHRA BR BKN035 OVC050
     FM310000 21009KT P6SM BKN045
     FM310300 24006KT P6SM BKN025
     FM310700 25005KT P6SM SCT250=



000
FTUS41 KBOX 302206 AAB
TAFACK
TAF AMD
KACK 302206Z 3022/3118 22012KT P6SM SCT003
     FM302300 22012KT 6SM BR BKN008
     FM310200 22012KT 2SM BR OVC003
     FM311100 26009KT 6SM BR BKN004
     FM311300 25008KT P6SM SCT025=



000
FTUS41 KBOX 302206 AAD
TAFPVD
TAF AMD
KPVD 302206Z 3022/3118 21010G20KT P6SM BKN045
     FM302230 22010KT 5SM -SHRA BR BKN035 OVC050
     FM310000 21009KT P6SM BKN045
     FM310300 24006KT P6SM BKN025
     FM310700 25005KT P6SM SCT250=



000
FTUS41 KBOX 302206 AAB
TAFBAF
TAF AMD
KBAF 302206Z 3022/3118 20008KT P6SM VCSH BKN045
     FM310200 22004KT 5SM BR BKN040
     FM310400 24004KT 3SM BR SCT060=



000
FTUS41 KBOX 302206 AAC
TAFBOS
TAF AMD
KBOS 302206Z 3022/3124 23014G24KT P6SM SCT045 BKN050
     FM302230 23012KT 3SM -TSRA BR BKN025 OVC050CB
     FM302330 22010KT 6SM -SHRA BKN045
     FM310100 24010KT P6SM BKN050
     FM310500 24007KT P6SM SCT250=



000
FTUS41 KBOX 302206 AAB
TAFORH
TAF AMD
KORH 302206Z 3022/3118 21010G20KT 3SM -TSRA BR BKN025 OVC050CB
     FM302245 23009KT P6SM VCSH SCT025 OVC035
     FM310200 25008KT P6SM BKN040
     FM310500 26007KT 5SM BR SCT070=



000
FTUS41 KBOX 302206 AAC
TAFBDL
TAF AMD
KBDL 302206Z 3022/3124 20007KT P6SM VCSH SCT025 BKN045
     FM310300 23004KT 4SM BR SCT050
     FM311700 29007KT P6SM FEW250=



000
FTUS41 KBOX 302206 AAB
TAFBAF
TAF AMD
KBAF 302206Z 3022/3118 20008KT P6SM VCSH BKN045
     FM310200 22004KT 5SM BR BKN040
     FM310400 24004KT 3SM BR SCT060=



000
FTUS41 KBOX 302149 AAC
TAFPVD
TAF AMD
KPVD 302149Z 3022/3118 21014G23KT P6SM BKN045
     FM302230 22010KT 5SM -SHRA BR BKN035 OVC050
     FM310000 21009KT P6SM BKN045
     FM310300 24006KT P6SM BKN025
     FM310700 25005KT P6SM SCT250=



000
FTUS41 KBOX 302149 AAC
TAFPVD
TAF AMD
KPVD 302149Z 3022/3118 21014G23KT P6SM BKN045
     FM302230 22010KT 5SM -SHRA BR BKN035 OVC050
     FM310000 21009KT P6SM BKN045
     FM310300 24006KT P6SM BKN025
     FM310700 25005KT P6SM SCT250=



000
FTUS41 KBOX 302149 AAC
TAFPVD
TAF AMD
KPVD 302149Z 3022/3118 21014G23KT P6SM BKN045
     FM302230 22010KT 5SM -SHRA BR BKN035 OVC050
     FM310000 21009KT P6SM BKN045
     FM310300 24006KT P6SM BKN025
     FM310700 25005KT P6SM SCT250=



000
FTUS41 KBOX 302149 AAC
TAFPVD
TAF AMD
KPVD 302149Z 3022/3118 21014G23KT P6SM BKN045
     FM302230 22010KT 5SM -SHRA BR BKN035 OVC050
     FM310000 21009KT P6SM BKN045
     FM310300 24006KT P6SM BKN025
     FM310700 25005KT P6SM SCT250=



000
FTUS41 KBOX 302100 AAB
TAFBDL
TAF AMD
KBDL 302100Z 3021/3124 21007KT 5SM -TSRA BR SCT025 OVC035CB
     FM302200 20007KT P6SM BKN045
     FM310300 23004KT 4SM BR SCT050
     FM311700 29007KT P6SM FEW250=



000
FTUS41 KBOX 302100 AAB
TAFBDL
TAF AMD
KBDL 302100Z 3021/3124 21007KT 5SM -TSRA BR SCT025 OVC035CB
     FM302200 20007KT P6SM BKN045
     FM310300 23004KT 4SM BR SCT050
     FM311700 29007KT P6SM FEW250=



000
FTUS41 KBOX 302059 AAB
TAFBOS
TAF AMD
KBOS 302059Z 3021/3124 23014G24KT P6SM SCT045 BKN050
     FM302245 23012KT 3SM TSRA BR BKN035 OVC050CB
     FM302330 22010KT 6SM -SHRA BKN045
     FM310100 24010KT P6SM BKN050
     FM310500 24007KT P6SM SCT250=



000
FTUS41 KBOX 302059 AAB
TAFBOS
TAF AMD
KBOS 302059Z 3021/3124 23014G24KT P6SM SCT045 BKN050
     FM302245 23012KT 3SM TSRA BR BKN035 OVC050CB
     FM302330 22010KT 6SM -SHRA BKN045
     FM310100 24010KT P6SM BKN050
     FM310500 24007KT P6SM SCT250=



000
FTUS41 KBOX 302059 AAB
TAFBOS
TAF AMD
KBOS 302059Z 3021/3124 23014G24KT P6SM SCT045 BKN050
     FM302245 23012KT 3SM TSRA BR BKN035 OVC050CB
     FM302330 22010KT 6SM -SHRA BKN045
     FM310100 24010KT P6SM BKN050
     FM310500 24007KT P6SM SCT250=



000
FTUS41 KBOX 302059 AAB
TAFBOS
TAF AMD
KBOS 302059Z 3021/3124 23014G24KT P6SM SCT045 BKN050
     FM302245 23012KT 3SM TSRA BR BKN035 OVC050CB
     FM302330 22010KT 6SM -SHRA BKN045
     FM310100 24010KT P6SM BKN050
     FM310500 24007KT P6SM SCT250=



000
FTUS41 KBOX 302043 AAB
TAFPVD
TAF AMD
KPVD 302043Z 3021/3118 21014G23KT P6SM BKN045
     FM302230 22010KT 2SM +TSRA BR BKN035 OVC050CB
     FM310000 21009KT P6SM BKN045
     FM310300 24006KT P6SM BKN025
     FM310700 25005KT P6SM SCT250=



000
FTUS41 KBOX 302043 AAB
TAFPVD
TAF AMD
KPVD 302043Z 3021/3118 21014G23KT P6SM BKN045
     FM302230 22010KT 2SM +TSRA BR BKN035 OVC050CB
     FM310000 21009KT P6SM BKN045
     FM310300 24006KT P6SM BKN025
     FM310700 25005KT P6SM SCT250=



000
FTUS41 KBOX 302013 AAA
TAFACK
TAF AMD
KACK 302013Z 3020/3118 22012KT P6SM SCT003
     FM302300 22012KT 6SM BR BKN008
     FM310200 22012KT 2SM BR OVC003
     FM311100 26009KT 6SM BR BKN004
     FM311300 25008KT P6SM SCT025=



000
FTUS41 KBOX 302013 AAA
TAFACK
TAF AMD
KACK 302013Z 3020/3118 22012KT P6SM SCT003
     FM302300 22012KT 6SM BR BKN008
     FM310200 22012KT 2SM BR OVC003
     FM311100 26009KT 6SM BR BKN004
     FM311300 25008KT P6SM SCT025=



000
FTUS41 KBOX 302008 AAA
TAFBOS
TAF AMD
KBOS 302008Z 3020/3124 23014G24KT P6SM SCT035 BKN050
      TEMPO 3022/3023 5SM TSRA BR BKN035 OVC050CB
     FM302330 22010KT 6SM -SHRA BKN050
     FM310300 24010KT P6SM BKN050
     FM310500 24007KT P6SM SCT250=



000
FTUS41 KBOX 302008 AAA
TAFBOS
TAF AMD
KBOS 302008Z 3020/3124 23014G24KT P6SM SCT035 BKN050
      TEMPO 3022/3023 5SM TSRA BR BKN035 OVC050CB
     FM302330 22010KT 6SM -SHRA BKN050
     FM310300 24010KT P6SM BKN050
     FM310500 24007KT P6SM SCT250=



000
FTUS41 KBOX 301946 AAA
TAFPVD
TAF AMD
KPVD 301946Z 3020/3118 21014G23KT P6SM BKN045
      TEMPO 3022/3023 2SM +TSRA BR BKN025 OVC050CB
     FM310000 21009KT 6SM -SHRA BKN050
     FM310300 24006KT P6SM BKN025
     FM310700 25005KT P6SM SCT250=



000
FTUS41 KBOX 301946 AAA
TAFPVD
TAF AMD
KPVD 301946Z 3020/3118 21014G23KT P6SM BKN045
      TEMPO 3022/3023 2SM +TSRA BR BKN025 OVC050CB
     FM310000 21009KT 6SM -SHRA BKN050
     FM310300 24006KT P6SM BKN025
     FM310700 25005KT P6SM SCT250=



000
FTUS41 KBOX 301946 AAA
TAFPVD
TAF AMD
KPVD 301946Z 3020/3118 21014G23KT P6SM BKN045
      TEMPO 3022/3023 2SM +TSRA BR BKN025 OVC050CB
     FM310000 21009KT 6SM -SHRA BKN050
     FM310300 24006KT P6SM BKN025
     FM310700 25005KT P6SM SCT250=



000
FTUS41 KBOX 301946 AAA
TAFPVD
TAF AMD
KPVD 301946Z 3020/3118 21014G23KT P6SM BKN045
      TEMPO 3022/3023 2SM +TSRA BR BKN025 OVC050CB
     FM310000 21009KT 6SM -SHRA BKN050
     FM310300 24006KT P6SM BKN025
     FM310700 25005KT P6SM SCT250=



000
FTUS41 KBOX 301920 AAA
TAFORH
TAF AMD
KORH 301920Z 3019/3118 21012KT P6SM SCT035
     FM302045 20010KT 2SM +TSRA BR BKN025 OVC050CB
     FM302200 23009KT P6SM OVC035
     FM310200 25008KT P6SM BKN040
     FM310500 26007KT 5SM BR SCT070=



000
FTUS41 KBOX 301920 AAA
TAFORH
TAF AMD
KORH 301920Z 3019/3118 21012KT P6SM SCT035
     FM302045 20010KT 2SM +TSRA BR BKN025 OVC050CB
     FM302200 23009KT P6SM OVC035
     FM310200 25008KT P6SM BKN040
     FM310500 26007KT 5SM BR SCT070=



000
FTUS41 KBOX 301920 AAA
TAFORH
TAF AMD
KORH 301920Z 3019/3118 21012KT P6SM SCT035
     FM302045 20010KT 2SM +TSRA BR BKN025 OVC050CB
     FM302200 23009KT P6SM OVC035
     FM310200 25008KT P6SM BKN040
     FM310500 26007KT 5SM BR SCT070=



000
FTUS41 KBOX 301920 AAA
TAFORH
TAF AMD
KORH 301920Z 3019/3118 21012KT P6SM SCT035
     FM302045 20010KT 2SM +TSRA BR BKN025 OVC050CB
     FM302200 23009KT P6SM OVC035
     FM310200 25008KT P6SM BKN040
     FM310500 26007KT 5SM BR SCT070=



000
FTUS41 KBOX 301840 AAA
TAFBDL
TAF AMD
KBDL 301840Z 3019/3124 20012G20KT P6SM BKN035
     FM302000 19010KT 2SM +TSRA BR BKN025 OVC050CB
     FM302115 19007KT P6SM BKN045
     FM310300 23004KT 4SM BR SCT050
     FM311700 29007KT P6SM FEW250=



000
FTUS41 KBOX 301840 AAA
TAFBDL
TAF AMD
KBDL 301840Z 3019/3124 20012G20KT P6SM BKN035
     FM302000 19010KT 2SM +TSRA BR BKN025 OVC050CB
     FM302115 19007KT P6SM BKN045
     FM310300 23004KT 4SM BR SCT050
     FM311700 29007KT P6SM FEW250=



000
FTUS41 KBOX 301838 AAA
TAFBAF
TAF AMD
KBAF 301838Z 3019/3118 19008KT 2SM +TSRA BR BKN025 OVC050CB
     FM302030 21006KT P6SM BKN045
     FM310200 22004KT 5SM BR BKN040
     FM310400 24004KT 3SM BR SCT060=



000
FTUS41 KBOX 301838 AAA
TAFBAF
TAF AMD
KBAF 301838Z 3019/3118 19008KT 2SM +TSRA BR BKN025 OVC050CB
     FM302030 21006KT P6SM BKN045
     FM310200 22004KT 5SM BR BKN040
     FM310400 24004KT 3SM BR SCT060=



000
FTUS41 KBOX 301722
TAFBOS
TAF
KBOS 301722Z 3018/3124 23014G22KT P6SM SCT035 BKN250
     FM302130 24015G22KT P6SM VCTS BKN045CB
     FM310000 23014KT 6SM -SHRA BKN050
     FM310300 24010KT P6SM BKN050
     FM310500 24007KT P6SM SCT250=



000
FTUS41 KBOX 301722
TAFPVD
TAF
KPVD 301722Z 3018/3118 21014G23KT P6SM BKN035
     FM302200 22013G25KT P6SM VCTS BKN030CB
     FM310000 21009KT 6SM -SHRA BKN050
     FM310300 24006KT P6SM BKN025
     FM310700 25005KT P6SM SCT250=



000
FTUS41 KBOX 301722
TAFBDL
TAF
KBDL 301722Z 3018/3124 20010KT P6SM BKN035
      TEMPO 3019/3021 2SM +TSRA BR BKN025 OVC050CB
     FM310300 23004KT P6SM SCT050
     FM311700 29007KT P6SM FEW250=



000
FTUS41 KBOX 301722
TAFACK
TAF
KACK 301722Z 3018/3118 22012G22KT P6SM SCT003 SCT015
     FM302300 22012G19KT 6SM BR BKN008
     FM310400 22012G19KT 3SM BR OVC003
     FM311100 26009KT 6SM BR BKN004
     FM311300 25008KT P6SM SCT025=



000
FTUS41 KBOX 301722
TAFBAF
TAF
KBAF 301722Z 3018/3118 20012KT P6SM BKN035
      TEMPO 3019/3021 2SM +TSRA BR BKN025 OVC050CB
     FM310200 22004KT P6SM BKN040
     FM310400 24004KT P6SM SCT060=



000
FTUS41 KBOX 301722
TAFORH
TAF
KORH 301722Z 3018/3118 21012G20KT P6SM BKN035
      TEMPO 3021/3023 2SM +TSRA BR BKN015 OVC050CB
     FM310000 23009KT 6SM -SHRA OVC035
     FM310200 25008KT P6SM BKN040
     FM310500 26007KT P6SM SCT070=



000
FTUS41 KBOX 301722
TAFBAF
TAF
KBAF 301722Z 3018/3118 20012KT P6SM BKN035
      TEMPO 3019/3021 2SM +TSRA BR BKN025 OVC050CB
     FM310200 22004KT P6SM BKN040
     FM310400 24004KT P6SM SCT060=



000
FTUS41 KBOX 301722
TAFACK
TAF
KACK 301722Z 3018/3118 22012G22KT P6SM SCT003 SCT015
     FM302300 22012G19KT 6SM BR BKN008
     FM310400 22012G19KT 3SM BR OVC003
     FM311100 26009KT 6SM BR BKN004
     FM311300 25008KT P6SM SCT025=



000
FTUS41 KBOX 301722
TAFPVD
TAF
KPVD 301722Z 3018/3118 21014G23KT P6SM BKN035
     FM302200 22013G25KT P6SM VCTS BKN030CB
     FM310000 21009KT 6SM -SHRA BKN050
     FM310300 24006KT P6SM BKN025
     FM310700 25005KT P6SM SCT250=



000
FTUS41 KBOX 301722
TAFACK
TAF
KACK 301722Z 3018/3118 22012G22KT P6SM SCT003 SCT015
     FM302300 22012G19KT 6SM BR BKN008
     FM310400 22012G19KT 3SM BR OVC003
     FM311100 26009KT 6SM BR BKN004
     FM311300 25008KT P6SM SCT025=



000
FTUS41 KBOX 301722
TAFORH
TAF
KORH 301722Z 3018/3118 21012G20KT P6SM BKN035
      TEMPO 3021/3023 2SM +TSRA BR BKN015 OVC050CB
     FM310000 23009KT 6SM -SHRA OVC035
     FM310200 25008KT P6SM BKN040
     FM310500 26007KT P6SM SCT070=



000
FTUS41 KBOX 301722
TAFORH
TAF
KORH 301722Z 3018/3118 21012G20KT P6SM BKN035
      TEMPO 3021/3023 2SM +TSRA BR BKN015 OVC050CB
     FM310000 23009KT 6SM -SHRA OVC035
     FM310200 25008KT P6SM BKN040
     FM310500 26007KT P6SM SCT070=



000
FTUS41 KBOX 301722
TAFBOS
TAF
KBOS 301722Z 3018/3124 23014G22KT P6SM SCT035 BKN250
     FM302130 24015G22KT P6SM VCTS BKN045CB
     FM310000 23014KT 6SM -SHRA BKN050
     FM310300 24010KT P6SM BKN050
     FM310500 24007KT P6SM SCT250=



000
FTUS41 KBOX 301722
TAFPVD
TAF
KPVD 301722Z 3018/3118 21014G23KT P6SM BKN035
     FM302200 22013G25KT P6SM VCTS BKN030CB
     FM310000 21009KT 6SM -SHRA BKN050
     FM310300 24006KT P6SM BKN025
     FM310700 25005KT P6SM SCT250=



000
FTUS41 KBOX 301722
TAFBDL
TAF
KBDL 301722Z 3018/3124 20010KT P6SM BKN035
      TEMPO 3019/3021 2SM +TSRA BR BKN025 OVC050CB
     FM310300 23004KT P6SM SCT050
     FM311700 29007KT P6SM FEW250=



000
FTUS41 KBOX 301722
TAFBOS
TAF
KBOS 301722Z 3018/3124 23014G22KT P6SM SCT035 BKN250
     FM302130 24015G22KT P6SM VCTS BKN045CB
     FM310000 23014KT 6SM -SHRA BKN050
     FM310300 24010KT P6SM BKN050
     FM310500 24007KT P6SM SCT250=



000
FTUS41 KBOX 301722
TAFBAF
TAF
KBAF 301722Z 3018/3118 20012KT P6SM BKN035
      TEMPO 3019/3021 2SM +TSRA BR BKN025 OVC050CB
     FM310200 22004KT P6SM BKN040
     FM310400 24004KT P6SM SCT060=



000
FTUS41 KBOX 301722
TAFACK
TAF
KACK 301722Z 3018/3118 22012G22KT P6SM SCT003 SCT015
     FM302300 22012G19KT 6SM BR BKN008
     FM310400 22012G19KT 3SM BR OVC003
     FM311100 26009KT 6SM BR BKN004
     FM311300 25008KT P6SM SCT025=



000
FTUS41 KBOX 301722
TAFBDL
TAF
KBDL 301722Z 3018/3124 20010KT P6SM BKN035
      TEMPO 3019/3021 2SM +TSRA BR BKN025 OVC050CB
     FM310300 23004KT P6SM SCT050
     FM311700 29007KT P6SM FEW250=



000
FTUS41 KBOX 301630 AAC
TAFACK
TAF AMD
KACK 301630Z 3017/3112 22012G22KT P6SM SCT015 BKN250
     FM310500 21013KT 6SM BR BKN020
     FM311100 25009KT 6SM BR BKN020=



000
FTUS41 KBOX 301630 AAC
TAFACK
TAF AMD
KACK 301630Z 3017/3112 22012G22KT P6SM SCT015 BKN250
     FM310500 21013KT 6SM BR BKN020
     FM311100 25009KT 6SM BR BKN020=



000
FTUS41 KBOX 301629 AAC
TAFBDL
TAF AMD
KBDL 301629Z 3016/3118 20010G18KT P6SM BKN035
      TEMPO 3018/3020 4SM TSRA BR BKN025 OVC050CB
     FM302200 20008KT P6SM BKN050
     FM310200 20006KT P6SM BKN020
     FM311500 29006KT P6SM FEW250=



000
FTUS41 KBOX 301629 AAC
TAFBDL
TAF AMD
KBDL 301629Z 3016/3118 20010G18KT P6SM BKN035
      TEMPO 3018/3020 4SM TSRA BR BKN025 OVC050CB
     FM302200 20008KT P6SM BKN050
     FM310200 20006KT P6SM BKN020
     FM311500 29006KT P6SM FEW250=



000
FTUS41 KBOX 301629 AAC
TAFBDL
TAF AMD
KBDL 301629Z 3016/3118 20010G18KT P6SM BKN035
      TEMPO 3018/3020 4SM TSRA BR BKN025 OVC050CB
     FM302200 20008KT P6SM BKN050
     FM310200 20006KT P6SM BKN020
     FM311500 29006KT P6SM FEW250=



000
FTUS41 KBOX 301629 AAC
TAFBDL
TAF AMD
KBDL 301629Z 3016/3118 20010G18KT P6SM BKN035
      TEMPO 3018/3020 4SM TSRA BR BKN025 OVC050CB
     FM302200 20008KT P6SM BKN050
     FM310200 20006KT P6SM BKN020
     FM311500 29006KT P6SM FEW250=



000
FTUS41 KBOX 301629 AAB
TAFBAF
TAF AMD
KBAF 301629Z 3016/3112 21011G19KT P6SM BKN035
      TEMPO 3018/3020 4SM TSRA BR BKN025 OVC050CB
     FM302200 21004KT P6SM BKN045
     FM310400 VRB03KT 6SM BR SCT070=



000
FTUS41 KBOX 301629 AAB
TAFBAF
TAF AMD
KBAF 301629Z 3016/3112 21011G19KT P6SM BKN035
      TEMPO 3018/3020 4SM TSRA BR BKN025 OVC050CB
     FM302200 21004KT P6SM BKN045
     FM310400 VRB03KT 6SM BR SCT070=



000
FTUS41 KBOX 301506 AAA
TAFPVD
TAF AMD
KPVD 301506Z 3015/3112 22012G20KT P6SM BKN025
     FM301800 21015G23KT P6SM BKN035
     FM302200 21013G25KT P6SM VCSH BKN050
     FM310200 21009KT 6SM BR OVC020
     FM310700 24005KT 6SM BR SCT020
     FM311100 27004KT P6SM FEW250=



000
FTUS41 KBOX 301506 AAA
TAFPVD
TAF AMD
KPVD 301506Z 3015/3112 22012G20KT P6SM BKN025
     FM301800 21015G23KT P6SM BKN035
     FM302200 21013G25KT P6SM VCSH BKN050
     FM310200 21009KT 6SM BR OVC020
     FM310700 24005KT 6SM BR SCT020
     FM311100 27004KT P6SM FEW250=



000
FTUS41 KBOX 301506 AAA
TAFPVD
TAF AMD
KPVD 301506Z 3015/3112 22012G20KT P6SM BKN025
     FM301800 21015G23KT P6SM BKN035
     FM302200 21013G25KT P6SM VCSH BKN050
     FM310200 21009KT 6SM BR OVC020
     FM310700 24005KT 6SM BR SCT020
     FM311100 27004KT P6SM FEW250=



000
FTUS41 KBOX 301506 AAA
TAFPVD
TAF AMD
KPVD 301506Z 3015/3112 22012G20KT P6SM BKN025
     FM301800 21015G23KT P6SM BKN035
     FM302200 21013G25KT P6SM VCSH BKN050
     FM310200 21009KT 6SM BR OVC020
     FM310700 24005KT 6SM BR SCT020
     FM311100 27004KT P6SM FEW250=



000
FTUS41 KBOX 301506 AAB
TAFACK
TAF AMD
KACK 301506Z 3015/3112 22010KT P6SM SCT005
      TEMPO 3015/3017 BKN004
     FM301700 22014G22KT P6SM FEW015 SCT250
     FM310500 21013KT 6SM BR BKN020
     FM311100 25009KT 6SM BR BKN020=



000
FTUS41 KBOX 301505 AAB
TAFBDL
TAF AMD
KBDL 301505Z 3015/3118 20010G18KT P6SM BKN035
     FM301900 21009KT P6SM VCTS BKN045CB
     FM302200 20008KT P6SM OVC050
     FM310200 20006KT P6SM BKN020
     FM311500 29006KT P6SM FEW250=



000
FTUS41 KBOX 301505 AAB
TAFBDL
TAF AMD
KBDL 301505Z 3015/3118 20010G18KT P6SM BKN035
     FM301900 21009KT P6SM VCTS BKN045CB
     FM302200 20008KT P6SM OVC050
     FM310200 20006KT P6SM BKN020
     FM311500 29006KT P6SM FEW250=



000
FTUS41 KBOX 301505 AAB
TAFBDL
TAF AMD
KBDL 301505Z 3015/3118 20010G18KT P6SM BKN035
     FM301900 21009KT P6SM VCTS BKN045CB
     FM302200 20008KT P6SM OVC050
     FM310200 20006KT P6SM BKN020
     FM311500 29006KT P6SM FEW250=



000
FTUS41 KBOX 301505 AAB
TAFBDL
TAF AMD
KBDL 301505Z 3015/3118 20010G18KT P6SM BKN035
     FM301900 21009KT P6SM VCTS BKN045CB
     FM302200 20008KT P6SM OVC050
     FM310200 20006KT P6SM BKN020
     FM311500 29006KT P6SM FEW250=



000
FTUS41 KBOX 301503 AAA
TAFBOS
TAF AMD
KBOS 301503Z 3015/3118 22012G24KT P6SM SCT045 BKN250
     FM302100 22014G21KT P6SM VCTS BKN045CB
     FM310000 23010KT P6SM OVC050
     FM310600 24008KT P6SM SCT020
     FM311100 27007KT P6SM FEW250=



000
FTUS41 KBOX 301503 AAA
TAFBOS
TAF AMD
KBOS 301503Z 3015/3118 22012G24KT P6SM SCT045 BKN250
     FM302100 22014G21KT P6SM VCTS BKN045CB
     FM310000 23010KT P6SM OVC050
     FM310600 24008KT P6SM SCT020
     FM311100 27007KT P6SM FEW250=



000
FTUS41 KBOX 301405 AAA
TAFBAF
TAF AMD
KBAF 301405Z 3014/3112 18008KT P6SM BKN025
     FM301600 21011G19KT P6SM BKN035
     FM301900 21010G18KT P6SM VCTS BKN030 BKN050CB
     FM302200 21004KT 6SM BR BKN020
     FM310400 VRB03KT 6SM BR SCT070=



000
FTUS41 KBOX 301405 AAA
TAFBAF
TAF AMD
KBAF 301405Z 3014/3112 18008KT P6SM BKN025
     FM301600 21011G19KT P6SM BKN035
     FM301900 21010G18KT P6SM VCTS BKN030 BKN050CB
     FM302200 21004KT 6SM BR BKN020
     FM310400 VRB03KT 6SM BR SCT070=



000
FTUS41 KBOX 301404 AAA
TAFBDL
TAF AMD
KBDL 301404Z 3014/3118 20012G18KT P6SM BKN025
     FM301600 20010KT P6SM SCT035
     FM301900 20009KT P6SM VCTS BKN025 OVC050CB
     FM302200 20008KT P6SM VCSH OVC020
     FM310200 20006KT P6SM BKN020
     FM311500 29006KT P6SM FEW250=



000
FTUS41 KBOX 301311 AAA
TAFACK
TAF AMD
KACK 301311Z 3013/3112 22010KT P6SM SCT003
     FM301600 22014G22KT P6SM FEW015 SCT250
     FM310500 21013KT 6SM BR BKN020
     FM311100 25009KT 6SM BR BKN020=



000
FTUS41 KBOX 301311 AAA
TAFACK
TAF AMD
KACK 301311Z 3013/3112 22010KT P6SM SCT003
     FM301600 22014G22KT P6SM FEW015 SCT250
     FM310500 21013KT 6SM BR BKN020
     FM311100 25009KT 6SM BR BKN020=



000
FTUS41 KBOX 301120
TAFBOS
TAF
KBOS 301120Z 3012/3118 22009KT P6SM FEW090
     FM301900 22014G21KT P6SM VCSH SCT050
     FM310300 23010G18KT P6SM VCSH OVC020
     FM310600 24008KT P6SM SCT020
     FM311100 27007KT P6SM FEW250=



000
FTUS41 KBOX 301120
TAFBDL
TAF
KBDL 301120Z 3012/3118 18005KT 5SM BR SCT160 BKN250
     FM301230 19006KT P6SM SKC
     FM301600 20010KT P6SM VCSH SCT050
     FM301800 20012G20KT P6SM VCSH BKN030
     FM302100 20009KT P6SM VCTS BKN025 OVC050CB
     FM310000 20008KT P6SM VCSH OVC020
     FM310200 20006KT P6SM BKN020
     FM311500 29006KT P6SM FEW250=



000
FTUS41 KBOX 301120
TAFORH
TAF
KORH 301120Z 3012/3112 24007KT P6SM SKC
     FM301700 22011G19KT P6SM VCSH SCT050 BKN100
     FM302100 22011G21KT P6SM VCTS BKN050CB
     FM310100 23008KT 6SM BR OVC025
     FM310500 26007KT 6SM BR SCT020=



000
FTUS41 KBOX 301120
TAFPVD
TAF
KPVD 301120Z 3012/3112 23006KT P6SM SCT003
     FM301500 21011KT P6SM FEW050
     FM301800 21015G23KT P6SM BKN050
     FM302200 21013G25KT P6SM VCSH BKN050
     FM310200 21009KT 6SM BR OVC020
     FM310700 24005KT 6SM BR SCT020
     FM311100 27004KT P6SM FEW250=



000
FTUS41 KBOX 301120
TAFORH
TAF
KORH 301120Z 3012/3112 24007KT P6SM SKC
     FM301700 22011G19KT P6SM VCSH SCT050 BKN100
     FM302100 22011G21KT P6SM VCTS BKN050CB
     FM310100 23008KT 6SM BR OVC025
     FM310500 26007KT 6SM BR SCT020=



000
FTUS41 KBOX 301120
TAFPVD
TAF
KPVD 301120Z 3012/3112 23006KT P6SM SCT003
     FM301500 21011KT P6SM FEW050
     FM301800 21015G23KT P6SM BKN050
     FM302200 21013G25KT P6SM VCSH BKN050
     FM310200 21009KT 6SM BR OVC020
     FM310700 24005KT 6SM BR SCT020
     FM311100 27004KT P6SM FEW250=



000
FTUS41 KBOX 301120
TAFACK
TAF
KACK 301120Z 3012/3112 23010KT 3SM BR OVC003
     FM301500 22013KT P6SM BKN008 BKN050
     FM301600 22014KT P6SM FEW050 SCT250
     FM301700 21015G22KT P6SM FEW003 SCT050
     FM310500 21013KT 6SM BR BKN020
     FM311100 25009KT 6SM BR BKN020=



000
FTUS41 KBOX 301120
TAFBAF
TAF
KBAF 301120Z 3012/3112 00000KT P6SM SKC
     FM301800 21011G19KT P6SM VCSH BKN030 BKN050
     FM302100 21010G18KT P6SM VCTS BKN030 BKN050CB
     FM310100 21004KT 6SM BR BKN020
     FM310400 VRB03KT 6SM BR SCT070=



000
FTUS41 KBOX 301120
TAFBOS
TAF
KBOS 301120Z 3012/3118 22009KT P6SM FEW090
     FM301900 22014G21KT P6SM VCSH SCT050
     FM310300 23010G18KT P6SM VCSH OVC020
     FM310600 24008KT P6SM SCT020
     FM311100 27007KT P6SM FEW250=



000
FTUS41 KBOX 301120
TAFACK
TAF
KACK 301120Z 3012/3112 23010KT 3SM BR OVC003
     FM301500 22013KT P6SM BKN008 BKN050
     FM301600 22014KT P6SM FEW050 SCT250
     FM301700 21015G22KT P6SM FEW003 SCT050
     FM310500 21013KT 6SM BR BKN020
     FM311100 25009KT 6SM BR BKN020=



000
FTUS41 KBOX 301120
TAFBDL
TAF
KBDL 301120Z 3012/3118 18005KT 5SM BR SCT160 BKN250
     FM301230 19006KT P6SM SKC
     FM301600 20010KT P6SM VCSH SCT050
     FM301800 20012G20KT P6SM VCSH BKN030
     FM302100 20009KT P6SM VCTS BKN025 OVC050CB
     FM310000 20008KT P6SM VCSH OVC020
     FM310200 20006KT P6SM BKN020
     FM311500 29006KT P6SM FEW250=



000
FTUS41 KBOX 301120
TAFBAF
TAF
KBAF 301120Z 3012/3112 00000KT P6SM SKC
     FM301800 21011G19KT P6SM VCSH BKN030 BKN050
     FM302100 21010G18KT P6SM VCTS BKN030 BKN050CB
     FM310100 21004KT 6SM BR BKN020
     FM310400 VRB03KT 6SM BR SCT070=



000
FTUS41 KBOX 300832 AAA
TAFACK
TAF AMD
KACK 300832Z 3009/3106 25010KT 1SM BR BKN003
     FM301100 23012KT 3SM BR BKN003
     FM301300 23012KT P6SM SCT250
     FM301700 22015KT P6SM SCT050
     FM301900 21015G22KT P6SM SCT050 BKN110
     FM310500 21013KT 6SM BR BKN020=



000
FTUS41 KBOX 300832 AAA
TAFACK
TAF AMD
KACK 300832Z 3009/3106 25010KT 1SM BR BKN003
     FM301100 23012KT 3SM BR BKN003
     FM301300 23012KT P6SM SCT250
     FM301700 22015KT P6SM SCT050
     FM301900 21015G22KT P6SM SCT050 BKN110
     FM310500 21013KT 6SM BR BKN020=



000
FTUS41 KBOX 300832 AAA
TAFACK
TAF AMD
KACK 300832Z 3009/3106 25010KT 1SM BR BKN003
     FM301100 23012KT 3SM BR BKN003
     FM301300 23012KT P6SM SCT250
     FM301700 22015KT P6SM SCT050
     FM301900 21015G22KT P6SM SCT050 BKN110
     FM310500 21013KT 6SM BR BKN020=



000
FTUS41 KBOX 300832 AAA
TAFACK
TAF AMD
KACK 300832Z 3009/3106 25010KT 1SM BR BKN003
     FM301100 23012KT 3SM BR BKN003
     FM301300 23012KT P6SM SCT250
     FM301700 22015KT P6SM SCT050
     FM301900 21015G22KT P6SM SCT050 BKN110
     FM310500 21013KT 6SM BR BKN020=



000
FTUS41 KBOX 300828 AAA
TAFPVD
TAF AMD
KPVD 300828Z 3008/3106 25006KT P6SM FEW250
     FM301400 21012KT P6SM SCT250
     FM301700 21014G21KT P6SM SCT050 BKN110
     FM302200 21013G25KT P6SM VCSH SCT050 BKN070
     FM310000 21012G23KT P6SM VCSH BKN020
     FM310300 22008KT P6SM OVC020=



000
FTUS41 KBOX 300828 AAA
TAFPVD
TAF AMD
KPVD 300828Z 3008/3106 25006KT P6SM FEW250
     FM301400 21012KT P6SM SCT250
     FM301700 21014G21KT P6SM SCT050 BKN110
     FM302200 21013G25KT P6SM VCSH SCT050 BKN070
     FM310000 21012G23KT P6SM VCSH BKN020
     FM310300 22008KT P6SM OVC020=



000
FTUS41 KBOX 300828 AAA
TAFPVD
TAF AMD
KPVD 300828Z 3008/3106 25006KT P6SM FEW250
     FM301400 21012KT P6SM SCT250
     FM301700 21014G21KT P6SM SCT050 BKN110
     FM302200 21013G25KT P6SM VCSH SCT050 BKN070
     FM310000 21012G23KT P6SM VCSH BKN020
     FM310300 22008KT P6SM OVC020=



000
FTUS41 KBOX 300827 AAA
TAFBDL
TAF AMD
KBDL 300827Z 3008/3112 19004KT P6SM SCT250
     FM301600 20012KT P6SM VCSH SCT050 BKN250
     FM302000 20012G20KT 5SM SHRA BKN030 BKN050
     FM310100 20007KT P6SM VCSH BKN020
     FM310300 20005KT P6SM BKN040
     FM310800 00000KT 5SM BR FEW250=



000
FTUS41 KBOX 300827 AAA
TAFBDL
TAF AMD
KBDL 300827Z 3008/3112 19004KT P6SM SCT250
     FM301600 20012KT P6SM VCSH SCT050 BKN250
     FM302000 20012G20KT 5SM SHRA BKN030 BKN050
     FM310100 20007KT P6SM VCSH BKN020
     FM310300 20005KT P6SM BKN040
     FM310800 00000KT 5SM BR FEW250=



000
FTUS41 KBOX 300827 AAA
TAFBDL
TAF AMD
KBDL 300827Z 3008/3112 19004KT P6SM SCT250
     FM301600 20012KT P6SM VCSH SCT050 BKN250
     FM302000 20012G20KT 5SM SHRA BKN030 BKN050
     FM310100 20007KT P6SM VCSH BKN020
     FM310300 20005KT P6SM BKN040
     FM310800 00000KT 5SM BR FEW250=



000
FTUS41 KBOX 300827 AAA
TAFBDL
TAF AMD
KBDL 300827Z 3008/3112 19004KT P6SM SCT250
     FM301600 20012KT P6SM VCSH SCT050 BKN250
     FM302000 20012G20KT 5SM SHRA BKN030 BKN050
     FM310100 20007KT P6SM VCSH BKN020
     FM310300 20005KT P6SM BKN040
     FM310800 00000KT 5SM BR FEW250=



000
FTUS41 KBOX 300826 AAA
TAFBOS
TAF AMD
KBOS 300826Z 3008/3112 25008KT P6SM FEW250
     FM301600 21011KT P6SM FEW050 SCT250
     FM302000 22014G22KT P6SM VCSH SCT050 BKN250
     FM310500 24008KT P6SM BKN020
     FM311100 27007KT P6SM FEW250=



000
FTUS41 KBOX 300826 AAA
TAFBOS
TAF AMD
KBOS 300826Z 3008/3112 25008KT P6SM FEW250
     FM301600 21011KT P6SM FEW050 SCT250
     FM302000 22014G22KT P6SM VCSH SCT050 BKN250
     FM310500 24008KT P6SM BKN020
     FM311100 27007KT P6SM FEW250=



000
FTUS41 KBOX 300530
TAFACK
TAF
KACK 300530Z 3006/3106 25010KT 1SM BR SCT003
     FM301100 23012KT 3SM BR SCT003
     FM301300 23012KT P6SM SCT250
     FM301700 22015KT P6SM SCT050
     FM301900 21015G22KT P6SM SCT050 BKN110
     FM310500 21013KT 6SM BR BKN020=



000
FTUS41 KBOX 300530
TAFPVD
TAF
KPVD 300530Z 3006/3106 25006KT P6SM FEW250
     FM301400 21012KT P6SM SCT250
     FM301700 21014G21KT P6SM SCT050 BKN110
     FM302200 21013G25KT P6SM VCSH SCT050 BKN070
     FM310000 21012G23KT P6SM VCSH BKN020
     FM310300 22008KT P6SM OVC020=



000
FTUS41 KBOX 300530
TAFBDL
TAF
KBDL 300530Z 3006/3112 19004KT P6SM SCT250
     FM301600 20012KT P6SM VCSH SCT050 BKN250
     FM302000 20012G20KT 5SM SHRA BKN030 BKN050
     FM310100 20007KT P6SM VCSH BKN020
     FM310300 20005KT P6SM BKN040
     FM310800 00000KT 5SM BR FEW250=



000
FTUS41 KBOX 300530
TAFBOS
TAF
KBOS 300530Z 3006/3112 25008KT P6SM FEW250
     FM301600 21011KT P6SM FEW050 SCT250
     FM302000 22014G22KT P6SM VCSH SCT050 BKN250
     FM310500 24008KT P6SM BKN020
     FM311100 27007KT P6SM FEW250=



000
FTUS41 KBOX 300530
TAFBDL
TAF
KBDL 300530Z 3006/3112 19004KT P6SM SCT250
     FM301600 20012KT P6SM VCSH SCT050 BKN250
     FM302000 20012G20KT 5SM SHRA BKN030 BKN050
     FM310100 20007KT P6SM VCSH BKN020
     FM310300 20005KT P6SM BKN040
     FM310800 00000KT 5SM BR FEW250=



000
FTUS41 KBOX 300530
TAFBOS
TAF
KBOS 300530Z 3006/3112 25008KT P6SM FEW250
     FM301600 21011KT P6SM FEW050 SCT250
     FM302000 22014G22KT P6SM VCSH SCT050 BKN250
     FM310500 24008KT P6SM BKN020
     FM311100 27007KT P6SM FEW250=



000
FTUS41 KBOX 300530
TAFPVD
TAF
KPVD 300530Z 3006/3106 25006KT P6SM FEW250
     FM301400 21012KT P6SM SCT250
     FM301700 21014G21KT P6SM SCT050 BKN110
     FM302200 21013G25KT P6SM VCSH SCT050 BKN070
     FM310000 21012G23KT P6SM VCSH BKN020
     FM310300 22008KT P6SM OVC020=



000
FTUS41 KBOX 300530
TAFBAF
TAF
KBAF 300530Z 3006/3106 VRB04KT P6SM FEW250
     FM301600 20012G18KT P6SM VCSH SCT050 BKN250
     FM302100 21009KT 3SM +SHRA BKN030 OVC050
     FM302300 21006KT 5SM SHRA BKN025 OVC050
     FM310000 20004KT P6SM VCSH OVC020
     FM310300 VRB03KT 5SM BR SCT040=



000
FTUS41 KBOX 300530
TAFBDL
TAF
KBDL 300530Z 3006/3112 19004KT P6SM SCT250
     FM301600 20012KT P6SM VCSH SCT050 BKN250
     FM302000 20012G20KT 5SM SHRA BKN030 BKN050
     FM310100 20007KT P6SM VCSH BKN020
     FM310300 20005KT P6SM BKN040
     FM310800 00000KT 5SM BR FEW250=



000
FTUS41 KBOX 300530
TAFBOS
TAF
KBOS 300530Z 3006/3112 25008KT P6SM FEW250
     FM301600 21011KT P6SM FEW050 SCT250
     FM302000 22014G22KT P6SM VCSH SCT050 BKN250
     FM310500 24008KT P6SM BKN020
     FM311100 27007KT P6SM FEW250=



000
FTUS41 KBOX 300530
TAFORH
TAF
KORH 300530Z 3006/3106 25008KT P6SM FEW200
     FM301700 22011G20KT P6SM VCSH SCT050 BKN250
     FM302200 23012KT 5SM SHRA BKN030 BKN050
     FM310200 25008KT P6SM VCSH BKN020
     FM310400 25008KT P6SM BKN020=



000
FTUS41 KBOX 300530
TAFACK
TAF
KACK 300530Z 3006/3106 25010KT 1SM BR SCT003
     FM301100 23012KT 3SM BR SCT003
     FM301300 23012KT P6SM SCT250
     FM301700 22015KT P6SM SCT050
     FM301900 21015G22KT P6SM SCT050 BKN110
     FM310500 21013KT 6SM BR BKN020=



000
FTUS41 KBOX 300530
TAFPVD
TAF
KPVD 300530Z 3006/3106 25006KT P6SM FEW250
     FM301400 21012KT P6SM SCT250
     FM301700 21014G21KT P6SM SCT050 BKN110
     FM302200 21013G25KT P6SM VCSH SCT050 BKN070
     FM310000 21012G23KT P6SM VCSH BKN020
     FM310300 22008KT P6SM OVC020=



000
FTUS41 KBOX 300530
TAFBAF
TAF
KBAF 300530Z 3006/3106 VRB04KT P6SM FEW250
     FM301600 20012G18KT P6SM VCSH SCT050 BKN250
     FM302100 21009KT 3SM +SHRA BKN030 OVC050
     FM302300 21006KT 5SM SHRA BKN025 OVC050
     FM310000 20004KT P6SM VCSH OVC020
     FM310300 VRB03KT 5SM BR SCT040=



000
FTUS41 KBOX 300530
TAFORH
TAF
KORH 300530Z 3006/3106 25008KT P6SM FEW200
     FM301700 22011G20KT P6SM VCSH SCT050 BKN250
     FM302200 23012KT 5SM SHRA BKN030 BKN050
     FM310200 25008KT P6SM VCSH BKN020
     FM310400 25008KT P6SM BKN020=



000
FTUS41 KBOX 300530
TAFBAF
TAF
KBAF 300530Z 3006/3106 VRB04KT P6SM FEW250
     FM301600 20012G18KT P6SM VCSH SCT050 BKN250
     FM302100 21009KT 3SM +SHRA BKN030 OVC050
     FM302300 21006KT 5SM SHRA BKN025 OVC050
     FM310000 20004KT P6SM VCSH OVC020
     FM310300 VRB03KT 5SM BR SCT040=



000
FTUS41 KBOX 292324
TAFORH
TAF
KORH 292324Z 3000/3024 25005KT P6SM SCT250
     FM300300 23004KT P6SM FEW250
     FM301500 23010G19KT P6SM BKN050 BKN110
     FM301800 22011G20KT P6SM BKN030 BKN050
     FM301900 21011G21KT P6SM BKN040 BKN050
     FM302200 21010G18KT P6SM BKN025 OVC050=



000
FTUS41 KBOX 292324
TAFBOS
TAF
KBOS 292324Z 3000/3106 25006KT P6SM FEW070 SCT200
     FM300300 23006KT P6SM SCT250
     FM301500 21011KT P6SM FEW050 SCT250
     FM301900 21015G23KT P6SM SCT050 BKN090
     FM310100 23012G23KT P6SM -SHRA BKN130
     FM310200 23010G21KT P6SM BKN130
     FM310500 25009KT P6SM SCT250=



000
FTUS41 KBOX 292324
TAFBAF
TAF
KBAF 292324Z 3000/3024 24005KT P6SM SCT250
     FM300300 VRB03KT P6SM SCT250
     FM301500 21006KT P6SM BKN050
     FM301800 22011KT P6SM OVC050
     FM302000 21009KT P6SM SHRA BKN030 BKN050
     FM302100 21008KT 6SM +SHRA BKN030 BKN050
     FM302300 22005KT 6SM BR BKN030 BKN050=



000
FTUS41 KBOX 292324
TAFBDL
TAF
KBDL 292324Z 3000/3106 22007KT P6SM FEW060 SCT250
     FM300400 18004KT P6SM SCT250
     FM301600 20008KT P6SM BKN060
     FM301900 19013G21KT P6SM SHRA SCT040 BKN060
     FM302300 21009KT P6SM SCT040 BKN060
     FM310100 21005KT P6SM BKN045
     FM310300 VRB03KT 2SM BR BKN045
     FM310500 21004KT 2SM BR SCT250=



000
FTUS41 KBOX 292324
TAFACK
TAF
KACK 292324Z 3000/3024 23008KT 6SM BR BKN250
     FM300200 23007KT 5SM BR SCT250
     FM300600 23009KT 3SM BR SCT250
     FM300800 23009KT 1SM BR BKN250
     FM301300 24012KT 3SM BR BKN003
     FM302300 22012KT 5SM BR SCT050 BKN110=



000
FTUS41 KBOX 292324
TAFPVD
TAF
KPVD 292324Z 3000/3024 22008KT P6SM FEW060 SCT250
     FM300400 24005KT P6SM FEW250
     FM301000 23005KT 5SM BR SCT012 BKN200
     FM301200 22005KT P6SM BKN200
     FM301500 20009KT P6SM BKN050 BKN250
     FM302100 21012G28KT P6SM SCT050 OVC080=



000
FTUS41 KBOX 292324
TAFPVD
TAF
KPVD 292324Z 3000/3024 22008KT P6SM FEW060 SCT250
     FM300400 24005KT P6SM FEW250
     FM301000 23005KT 5SM BR SCT012 BKN200
     FM301200 22005KT P6SM BKN200
     FM301500 20009KT P6SM BKN050 BKN250
     FM302100 21012G28KT P6SM SCT050 OVC080=



000
FTUS41 KBOX 292324
TAFBDL
TAF
KBDL 292324Z 3000/3106 22007KT P6SM FEW060 SCT250
     FM300400 18004KT P6SM SCT250
     FM301600 20008KT P6SM BKN060
     FM301900 19013G21KT P6SM SHRA SCT040 BKN060
     FM302300 21009KT P6SM SCT040 BKN060
     FM310100 21005KT P6SM BKN045
     FM310300 VRB03KT 2SM BR BKN045
     FM310500 21004KT 2SM BR SCT250=



000
FTUS41 KBOX 292324
TAFORH
TAF
KORH 292324Z 3000/3024 25005KT P6SM SCT250
     FM300300 23004KT P6SM FEW250
     FM301500 23010G19KT P6SM BKN050 BKN110
     FM301800 22011G20KT P6SM BKN030 BKN050
     FM301900 21011G21KT P6SM BKN040 BKN050
     FM302200 21010G18KT P6SM BKN025 OVC050=



000
FTUS41 KBOX 292324
TAFBAF
TAF
KBAF 292324Z 3000/3024 24005KT P6SM SCT250
     FM300300 VRB03KT P6SM SCT250
     FM301500 21006KT P6SM BKN050
     FM301800 22011KT P6SM OVC050
     FM302000 21009KT P6SM SHRA BKN030 BKN050
     FM302100 21008KT 6SM +SHRA BKN030 BKN050
     FM302300 22005KT 6SM BR BKN030 BKN050=



000
FTUS41 KBOX 292324
TAFACK
TAF
KACK 292324Z 3000/3024 23008KT 6SM BR BKN250
     FM300200 23007KT 5SM BR SCT250
     FM300600 23009KT 3SM BR SCT250
     FM300800 23009KT 1SM BR BKN250
     FM301300 24012KT 3SM BR BKN003
     FM302300 22012KT 5SM BR SCT050 BKN110=



000
FTUS41 KBOX 292324
TAFBOS
TAF
KBOS 292324Z 3000/3106 25006KT P6SM FEW070 SCT200
     FM300300 23006KT P6SM SCT250
     FM301500 21011KT P6SM FEW050 SCT250
     FM301900 21015G23KT P6SM SCT050 BKN090
     FM310100 23012G23KT P6SM -SHRA BKN130
     FM310200 23010G21KT P6SM BKN130
     FM310500 25009KT P6SM SCT250=



000
FTUS41 KBOX 292026 AAA
TAFPVD
TAF AMD
KPVD 292026Z 2920/3018 25009KT P6SM SCT050
     FM300000 22006KT P6SM FEW050
     FM301000 22005KT 6SM BR BKN200
     FM301500 20009KT P6SM BKN050 BKN250=



000
FTUS41 KBOX 292026 AAA
TAFPVD
TAF AMD
KPVD 292026Z 2920/3018 25009KT P6SM SCT050
     FM300000 22006KT P6SM FEW050
     FM301000 22005KT 6SM BR BKN200
     FM301500 20009KT P6SM BKN050 BKN250=



000
FTUS41 KBOX 292025 AAA
TAFBDL
TAF AMD
KBDL 292025Z 2920/3024 30007KT P6SM FEW050
     FM292200 VRB03KT P6SM FEW050
     FM300000 18004KT P6SM FEW250
     FM300900 18004KT 3SM BR BKN250
     FM301200 18003KT P6SM BKN250
     FM301500 20007KT P6SM VCSH BKN050 BKN060
     FM301800 20012KT P6SM VCSH SCT050 BKN060
     FM302000 19013G21KT P6SM -SHRA SCT050 BKN060
     FM302300 21009KT P6SM -SHRA SCT050 BKN060=



000
FTUS41 KBOX 292024 AAA
TAFBOS
TAF AMD
KBOS 292024Z 2920/3024 09007KT P6SM SCT050
     FM292200 15010KT P6SM SCT050
     FM292300 18010KT P6SM SCT050
     FM300000 21009KT P6SM FEW050
     FM301700 21014G25KT P6SM BKN050=



000
FTUS41 KBOX 292024 AAA
TAFBOS
TAF AMD
KBOS 292024Z 2920/3024 09007KT P6SM SCT050
     FM292200 15010KT P6SM SCT050
     FM292300 18010KT P6SM SCT050
     FM300000 21009KT P6SM FEW050
     FM301700 21014G25KT P6SM BKN050=



000
FTUS41 KBOX 292024 AAA
TAFBOS
TAF AMD
KBOS 292024Z 2920/3024 09007KT P6SM SCT050
     FM292200 15010KT P6SM SCT050
     FM292300 18010KT P6SM SCT050
     FM300000 21009KT P6SM FEW050
     FM301700 21014G25KT P6SM BKN050=



000
FTUS41 KBOX 291736
TAFPVD
TAF
KPVD 291736Z 2918/3018 18009KT P6SM FEW050 SCT250
     FM292200 21006KT P6SM FEW050
     FM300300 22006KT P6SM FEW250
     FM301000 22005KT 6SM BR BKN200
     FM301500 20009KT P6SM BKN050 BKN250=



000
FTUS41 KBOX 291736
TAFBAF
TAF
KBAF 291736Z 2918/3018 23004KT P6SM FEW050 FEW250
     FM300300 00000KT P6SM FEW250
     FM300700 00000KT 4SM BR FEW250
      TEMPO 3007/3011 4SM BR
     FM301200 21004KT P6SM BKN250
     FM301600 21008KT P6SM VCSH BKN050=



000
FTUS41 KBOX 291736
TAFBOS
TAF
KBOS 291736Z 2918/3024 14006KT P6SM FEW050 SCT250
     FM292000 15010KT P6SM SCT050
     FM292200 19010KT P6SM SCT050
     FM300000 21009KT P6SM SCT050 BKN250
     FM301700 21014G25KT P6SM BKN050=



000
FTUS41 KBOX 291736
TAFACK
TAF
KACK 291736Z 2918/3018 21007KT P6SM FEW050 SCT250
     FM300200 24010KT P6SM BKN250
     FM300300 24010KT P6SM SCT250
     FM300800 24010KT 1SM BR BKN003
     FM301600 24013KT 3SM BR FEW003 SCT050=



000
FTUS41 KBOX 291736
TAFORH
TAF
KORH 291736Z 2918/3018 25005KT P6SM SCT050 BKN060
     FM292100 26006KT P6SM FEW050 SCT250
     FM301500 23009KT P6SM BKN050 BKN110
     FM301700 22010G20KT P6SM VCSH BKN040 BKN050=



000
FTUS41 KBOX 291736
TAFBDL
TAF
KBDL 291736Z 2918/3024 24005KT P6SM FEW050 SCT250
     FM300500 18004KT P6SM FEW250
     FM300900 18004KT 3SM BR BKN250
     FM301200 18003KT P6SM BKN250
     FM301500 20007KT P6SM VCSH BKN050 BKN060
     FM301800 20012KT P6SM VCSH SCT050 BKN060
     FM302000 19013G21KT P6SM -SHRA SCT050 BKN060
     FM302300 21009KT P6SM -SHRA SCT050 BKN060=



000
FTUS41 KBOX 291736
TAFBOS
TAF
KBOS 291736Z 2918/3024 14006KT P6SM FEW050 SCT250
     FM292000 15010KT P6SM SCT050
     FM292200 19010KT P6SM SCT050
     FM300000 21009KT P6SM SCT050 BKN250
     FM301700 21014G25KT P6SM BKN050=



000
FTUS41 KBOX 291736
TAFPVD
TAF
KPVD 291736Z 2918/3018 18009KT P6SM FEW050 SCT250
     FM292200 21006KT P6SM FEW050
     FM300300 22006KT P6SM FEW250
     FM301000 22005KT 6SM BR BKN200
     FM301500 20009KT P6SM BKN050 BKN250=



000
FTUS41 KBOX 291736
TAFBDL
TAF
KBDL 291736Z 2918/3024 24005KT P6SM FEW050 SCT250
     FM300500 18004KT P6SM FEW250
     FM300900 18004KT 3SM BR BKN250
     FM301200 18003KT P6SM BKN250
     FM301500 20007KT P6SM VCSH BKN050 BKN060
     FM301800 20012KT P6SM VCSH SCT050 BKN060
     FM302000 19013G21KT P6SM -SHRA SCT050 BKN060
     FM302300 21009KT P6SM -SHRA SCT050 BKN060=



000
FTUS41 KBOX 291736
TAFORH
TAF
KORH 291736Z 2918/3018 25005KT P6SM SCT050 BKN060
     FM292100 26006KT P6SM FEW050 SCT250
     FM301500 23009KT P6SM BKN050 BKN110
     FM301700 22010G20KT P6SM VCSH BKN040 BKN050=



000
FTUS41 KBOX 291736
TAFBAF
TAF
KBAF 291736Z 2918/3018 23004KT P6SM FEW050 FEW250
     FM300300 00000KT P6SM FEW250
     FM300700 00000KT 4SM BR FEW250
      TEMPO 3007/3011 4SM BR
     FM301200 21004KT P6SM BKN250
     FM301600 21008KT P6SM VCSH BKN050=



000
FTUS41 KBOX 291736
TAFACK
TAF
KACK 291736Z 2918/3018 21007KT P6SM FEW050 SCT250
     FM300200 24010KT P6SM BKN250
     FM300300 24010KT P6SM SCT250
     FM300800 24010KT 1SM BR BKN003
     FM301600 24013KT 3SM BR FEW003 SCT050=



    US Dept of Commerce
    National Oceanic and Atmospheric Administration
    National Weather Service
    1325 East West Highway
    Silver Spring, MD 20910
    Page Author: NWS Internet Services Team
Disclaimer
Information Quality
Credits
Glossary
Privacy Policy
Freedom of Information Act (FOIA)
About Us
Career Opportunities